Time,TemperatureF,DewpointF,PressureIn,WindDirection,WindDirectionDegrees,WindSpeedMPH,WindSpeedGustMPH,Humidity,HourlyPrecipIn,Conditions,Clouds,dailyrainin,SoftwareType,DateUTC
2013-12-09 00:00:00,23.3,21.8,30.30,SSE,156,6.0,8.0,94,0.00,,,0.00,Wunderground v.1.12,2013-12-09 05:00:00,
2013-12-09 00:01:00,23.4,21.9,30.30,South,186,7.0,8.0,94,0.00,,,0.00,Wunderground v.1.12,2013-12-09 05:01:00,
2013-12-09 00:06:00,23.6,22.4,30.30,South,188,3.0,13.0,95,0.00,,,0.00,Wunderground v.1.12,2013-12-09 05:06:00,
2013-12-09 00:11:00,23.8,22.6,30.30,SE,135,3.0,4.0,95,0.00,,,0.00,Wunderground v.1.12,2013-12-09 05:11:00,
2013-12-09 00:12:00,23.8,22.6,30.30,SE,131,3.0,6.0,95,0.00,,,0.00,Wunderground v.1.12,2013-12-09 05:12:00,
2013-12-09 00:16:00,23.8,22.3,30.30,SSW,211,4.0,4.0,94,0.00,,,0.00,Wunderground v.1.12,2013-12-09 05:16:00,
2013-12-09 00:17:00,23.8,22.3,30.30,South,170,3.0,5.0,94,0.00,,,0.00,Wunderground v.1.12,2013-12-09 05:17:00,
2013-12-09 00:21:00,24.0,22.8,30.30,SSW,207,2.0,3.0,95,0.00,,,0.00,Wunderground v.1.12,2013-12-09 05:21:00,
2013-12-09 00:22:00,24.0,22.8,30.30,SSE,158,3.0,5.0,95,0.00,,,0.00,Wunderground v.1.12,2013-12-09 05:22:00,
2013-12-09 00:26:00,24.3,23.1,30.30,East,93,1.0,4.0,95,0.00,,,0.00,Wunderground v.1.12,2013-12-09 05:26:00,
2013-12-09 00:27:00,24.3,23.1,30.29,SW,221,7.0,13.0,95,0.00,,,0.00,Wunderground v.1.12,2013-12-09 05:27:00,
2013-12-09 00:28:00,24.4,23.2,30.30,WSW,250,5.0,13.0,95,0.00,,,0.00,Wunderground v.1.12,2013-12-09 05:28:00,
2013-12-09 00:31:00,24.6,23.1,30.29,South,177,3.0,6.0,94,0.00,,,0.00,Wunderground v.1.12,2013-12-09 05:31:00,
2013-12-09 00:32:00,24.6,23.1,30.29,South,174,6.0,6.0,94,0.00,,,0.00,Wunderground v.1.12,2013-12-09 05:32:00,
2013-12-09 00:33:00,24.6,23.1,30.29,West,276,4.0,7.0,94,0.00,,,0.00,Wunderground v.1.12,2013-12-09 05:33:00,
2013-12-09 00:36:00,24.8,23.6,30.29,South,183,3.0,4.0,95,0.00,,,0.00,Wunderground v.1.12,2013-12-09 05:36:00,
2013-12-09 00:37:00,24.8,23.6,30.29,South,174,2.0,4.0,95,0.00,,,0.00,Wunderground v.1.12,2013-12-09 05:37:00,
2013-12-09 00:38:00,24.8,23.6,30.29,WSW,246,4.0,6.0,95,0.00,,,0.00,Wunderground v.1.12,2013-12-09 05:38:00,
2013-12-09 00:42:00,25.0,23.8,30.29,SSE,168,4.0,6.0,95,0.00,,,0.00,Wunderground v.1.12,2013-12-09 05:42:00,
2013-12-09 00:43:00,25.1,23.6,30.29,SSE,167,1.0,9.0,94,0.00,,,0.00,Wunderground v.1.12,2013-12-09 05:43:00,
2013-12-09 00:47:00,25.2,23.7,30.28,SSE,148,1.0,7.0,94,0.00,,,0.00,Wunderground v.1.12,2013-12-09 05:47:00,
2013-12-09 00:48:00,25.3,23.8,30.27,SW,225,5.0,11.0,94,0.00,,,0.00,Wunderground v.1.12,2013-12-09 05:48:00,
2013-12-09 00:49:00,25.3,23.8,30.28,South,174,4.0,11.0,94,0.00,,,0.00,Wunderground v.1.12,2013-12-09 05:49:00,
2013-12-09 00:52:00,25.4,23.9,30.27,SSW,202,7.0,10.0,94,0.00,,,0.00,Wunderground v.1.12,2013-12-09 05:52:00,
2013-12-09 00:53:00,25.4,23.9,30.27,SW,222,9.0,12.0,94,0.00,,,0.00,Wunderground v.1.12,2013-12-09 05:53:00,
2013-12-09 00:54:00,25.5,24.0,30.27,South,181,4.0,12.0,94,0.00,,,0.00,Wunderground v.1.12,2013-12-09 05:54:00,
2013-12-09 00:57:00,25.5,24.0,30.27,SSE,166,5.0,9.0,94,0.00,,,0.00,Wunderground v.1.12,2013-12-09 05:57:00,
2013-12-09 00:58:00,25.6,24.1,30.26,WSW,254,2.0,9.0,94,0.00,,,0.00,Wunderground v.1.12,2013-12-09 05:58:00,
2013-12-09 00:59:00,25.6,24.1,30.26,SSW,194,1.0,9.0,94,0.00,,,0.00,Wunderground v.1.12,2013-12-09 05:59:00,
2013-12-09 01:03:00,25.6,24.1,30.26,WSW,239,6.0,12.0,94,0.00,,,0.00,Wunderground v.1.12,2013-12-09 06:03:00,
2013-12-09 01:04:00,25.6,24.1,30.26,SSW,210,3.0,12.0,94,0.00,,,0.00,Wunderground v.1.12,2013-12-09 06:04:00,
2013-12-09 01:08:00,25.6,24.1,30.25,WSW,243,5.0,10.0,94,0.00,,,0.00,Wunderground v.1.12,2013-12-09 06:08:00,
2013-12-09 01:09:00,25.6,24.1,30.25,West,274,3.0,10.0,94,0.00,,,0.00,Wunderground v.1.12,2013-12-09 06:09:00,
2013-12-09 01:10:00,25.6,24.1,30.25,West,278,1.0,10.0,94,0.00,,,0.00,Wunderground v.1.12,2013-12-09 06:10:00,
2013-12-09 01:13:00,25.6,24.1,30.24,South,181,3.0,14.0,94,0.00,,,0.00,Wunderground v.1.12,2013-12-09 06:13:00,
2013-12-09 01:14:00,25.7,24.2,30.24,SW,226,3.0,14.0,94,0.00,,,0.00,Wunderground v.1.12,2013-12-09 06:14:00,
2013-12-09 01:15:00,25.7,24.2,30.24,East,89,1.0,14.0,94,0.00,,,0.00,Wunderground v.1.12,2013-12-09 06:15:00,
2013-12-09 01:18:00,25.8,24.3,30.24,WSW,243,6.0,7.0,94,0.00,,,0.00,Wunderground v.1.12,2013-12-09 06:18:00,
2013-12-09 01:19:00,25.8,24.3,30.25,WSW,240,6.0,7.0,94,0.00,,,0.00,Wunderground v.1.12,2013-12-09 06:19:00,
2013-12-09 01:20:00,25.7,24.2,30.24,WSW,243,5.0,8.0,94,0.00,,,0.00,Wunderground v.1.12,2013-12-09 06:20:00,
2013-12-09 01:21:00,25.6,24.1,30.25,SSE,158,3.0,9.0,94,0.00,,,0.00,Wunderground v.1.12,2013-12-09 06:21:00,
2013-12-09 01:23:00,25.5,24.0,30.24,South,174,3.0,9.0,94,0.00,,,0.00,Wunderground v.1.12,2013-12-09 06:23:00,
2013-12-09 01:24:00,25.5,24.0,30.25,SW,218,5.0,9.0,94,0.00,,,0.00,Wunderground v.1.12,2013-12-09 06:24:00,
2013-12-09 01:25:00,25.5,24.0,30.24,SW,214,3.0,15.0,94,0.00,,,0.00,Wunderground v.1.12,2013-12-09 06:25:00,
2013-12-09 01:26:00,25.4,23.9,30.24,West,260,2.0,4.0,94,0.00,,,0.00,Wunderground v.1.12,2013-12-09 06:26:00,
2013-12-09 01:28:00,25.5,24.0,30.24,WSW,243,9.0,13.0,94,0.00,,,0.00,Wunderground v.1.12,2013-12-09 06:28:00,
2013-12-09 01:29:00,25.5,24.0,30.23,SSE,167,4.0,13.0,94,0.00,,,0.00,Wunderground v.1.12,2013-12-09 06:29:00,
2013-12-09 01:30:00,25.6,24.1,30.23,NW,314,2.0,13.0,94,0.00,,,0.00,Wunderground v.1.12,2013-12-09 06:30:00,
2013-12-09 01:31:00,25.6,24.1,30.23,North,355,1.0,13.0,94,0.00,,,0.00,Wunderground v.1.12,2013-12-09 06:31:00,
2013-12-09 01:32:00,25.6,24.1,30.23,SW,231,3.0,5.0,94,0.00,,,0.00,Wunderground v.1.12,2013-12-09 06:32:00,
2013-12-09 01:34:00,25.6,24.1,30.23,SSW,195,3.0,10.0,94,0.00,,,0.00,Wunderground v.1.12,2013-12-09 06:34:00,
2013-12-09 01:35:00,25.5,24.0,30.23,SW,221,2.0,10.0,94,0.00,,,0.00,Wunderground v.1.12,2013-12-09 06:35:00,
2013-12-09 01:36:00,25.6,24.1,30.23,SSW,198,4.0,10.0,94,0.00,,,0.00,Wunderground v.1.12,2013-12-09 06:36:00,
2013-12-09 01:37:00,25.5,24.0,30.23,SSW,208,4.0,9.0,94,0.00,,,0.00,Wunderground v.1.12,2013-12-09 06:37:00,
2013-12-09 01:39:00,25.5,24.0,30.23,SSW,212,5.0,9.0,94,0.00,,,0.00,Wunderground v.1.12,2013-12-09 06:39:00,
2013-12-09 01:40:00,25.5,24.0,30.23,WSW,242,1.0,9.0,94,0.00,,,0.00,Wunderground v.1.12,2013-12-09 06:40:00,
2013-12-09 01:41:00,25.5,24.0,30.23,WSW,245,3.0,3.0,94,0.00,,,0.00,Wunderground v.1.12,2013-12-09 06:41:00,
2013-12-09 01:43:00,25.6,24.1,30.23,South,170,3.0,7.0,94,0.00,,,0.00,Wunderground v.1.12,2013-12-09 06:43:00,
2013-12-09 01:44:00,25.6,24.1,30.23,SW,236,2.0,7.0,94,0.00,,,0.00,Wunderground v.1.12,2013-12-09 06:44:00,
2013-12-09 01:45:00,25.5,24.0,30.23,SSW,210,0.0,7.0,94,0.00,,,0.00,Wunderground v.1.12,2013-12-09 06:45:00,
2013-12-09 01:47:00,25.5,24.0,30.23,SW,235,2.0,3.0,94,0.00,,,0.00,Wunderground v.1.12,2013-12-09 06:47:00,
2013-12-09 01:49:00,25.5,24.0,30.23,SW,236,1.0,3.0,94,0.00,,,0.00,Wunderground v.1.12,2013-12-09 06:49:00,
2013-12-09 01:51:00,25.6,24.4,30.24,West,260,5.0,6.0,95,0.00,,,0.00,Wunderground v.1.12,2013-12-09 06:51:00,
2013-12-09 01:52:00,25.7,24.5,30.24,West,273,4.0,6.0,95,0.00,,,0.00,Wunderground v.1.12,2013-12-09 06:52:00,
2013-12-09 01:54:00,25.6,24.4,30.24,SSE,154,1.0,7.0,95,0.00,,,0.00,Wunderground v.1.12,2013-12-09 06:54:00,
2013-12-09 01:55:00,25.6,24.4,30.24,SW,224,3.0,7.0,95,0.00,,,0.00,Wunderground v.1.12,2013-12-09 06:55:00,
2013-12-09 01:56:00,25.6,24.4,30.24,WSW,252,3.0,3.0,95,0.00,,,0.00,Wunderground v.1.12,2013-12-09 06:56:00,
2013-12-09 01:57:00,25.6,24.4,30.23,SW,232,5.0,5.0,95,0.00,,,0.00,Wunderground v.1.12,2013-12-09 06:57:00,
2013-12-09 01:59:00,25.6,24.1,30.23,West,262,4.0,8.0,94,0.00,,,0.00,Wunderground v.1.12,2013-12-09 06:59:00,
2013-12-09 02:00:00,25.5,24.0,30.23,West,266,3.0,8.0,94,0.00,,,0.00,Wunderground v.1.12,2013-12-09 07:00:00,
2013-12-09 02:01:00,25.5,24.3,30.23,SW,229,2.0,3.0,95,0.00,,,0.00,Wunderground v.1.12,2013-12-09 07:01:00,
2013-12-09 02:02:00,25.5,24.3,30.23,SW,226,0.0,3.0,95,0.00,,,0.00,Wunderground v.1.12,2013-12-09 07:02:00,
2013-12-09 02:04:00,25.5,24.3,30.23,SW,222,2.0,3.0,95,0.00,,,0.00,Wunderground v.1.12,2013-12-09 07:04:00,
2013-12-09 02:05:00,25.5,24.3,30.23,SSW,200,3.0,3.0,95,0.00,,,0.00,Wunderground v.1.12,2013-12-09 07:05:00,
2013-12-09 02:06:00,25.5,24.3,30.23,SW,233,2.0,5.0,95,0.00,,,0.00,Wunderground v.1.12,2013-12-09 07:06:00,
2013-12-09 02:07:00,25.5,24.3,30.23,WSW,256,2.0,5.0,95,0.00,,,0.00,Wunderground v.1.12,2013-12-09 07:07:00,
2013-12-09 02:10:00,25.5,24.3,30.23,SW,225,2.0,5.0,95,0.00,,,0.00,Wunderground v.1.12,2013-12-09 07:10:00,
2013-12-09 02:12:00,25.5,24.3,30.23,SSE,155,5.0,5.0,95,0.00,,,0.00,Wunderground v.1.12,2013-12-09 07:12:00,
2013-12-09 02:15:00,25.5,24.3,30.23,SW,221,1.0,5.0,95,0.00,,,0.00,Wunderground v.1.12,2013-12-09 07:15:00,
2013-12-09 02:17:00,25.5,24.3,30.22,SW,220,2.0,2.0,95,0.00,,,0.00,Wunderground v.1.12,2013-12-09 07:17:00,
2013-12-09 02:18:00,25.5,24.3,30.22,WNW,290,1.0,2.0,95,0.00,,,0.00,Wunderground v.1.12,2013-12-09 07:18:00,
2013-12-09 02:20:00,25.5,24.3,30.22,WSW,239,4.0,6.0,95,0.00,,,0.00,Wunderground v.1.12,2013-12-09 07:20:00,
2013-12-09 02:23:00,25.5,24.3,30.23,WSW,253,1.0,6.0,95,0.00,,,0.00,Wunderground v.1.12,2013-12-09 07:23:00,
2013-12-09 02:25:00,25.5,24.3,30.23,West,267,0.0,6.0,95,0.00,,,0.00,Wunderground v.1.12,2013-12-09 07:25:00,
2013-12-09 02:26:00,25.5,24.3,30.23,West,267,0.0,6.0,95,0.00,,,0.00,Wunderground v.1.12,2013-12-09 07:26:00,
2013-12-09 02:28:00,25.6,24.4,30.23,West,264,0.0,2.0,95,0.00,,,0.00,Wunderground v.1.12,2013-12-09 07:28:00,
2013-12-09 02:30:00,25.6,24.4,30.23,SW,231,1.0,2.0,95,0.00,,,0.00,Wunderground v.1.12,2013-12-09 07:30:00,
2013-12-09 02:31:00,25.6,24.4,30.23,SSW,194,2.0,2.0,95,0.00,,,0.00,Wunderground v.1.12,2013-12-09 07:31:00,
2013-12-09 02:33:00,25.6,24.4,30.23,South,169,1.0,3.0,95,0.00,,,0.00,Wunderground v.1.12,2013-12-09 07:33:00,
2013-12-09 02:35:00,25.6,24.4,30.23,SSW,211,2.0,3.0,95,0.00,,,0.00,Wunderground v.1.12,2013-12-09 07:35:00,
2013-12-09 02:36:00,25.6,24.4,30.23,West,263,0.0,3.0,95,0.00,,,0.00,Wunderground v.1.12,2013-12-09 07:36:00,
2013-12-09 02:38:00,25.6,24.4,30.23,South,181,0.0,1.0,95,0.00,,,0.00,Wunderground v.1.12,2013-12-09 07:38:00,
2013-12-09 02:40:00,25.6,24.4,30.23,South,188,2.0,4.0,95,0.00,,,0.00,Wunderground v.1.12,2013-12-09 07:40:00,
2013-12-09 02:41:00,25.6,24.4,30.23,SW,226,1.0,1.0,95,0.00,,,0.00,Wunderground v.1.12,2013-12-09 07:41:00,
2013-12-09 02:43:00,25.7,24.5,30.23,SSW,210,0.0,1.0,95,0.00,,,0.00,Wunderground v.1.12,2013-12-09 07:43:00,
2013-12-09 02:45:00,25.7,24.5,30.23,SE,146,1.0,5.0,95,0.00,,,0.00,Wunderground v.1.12,2013-12-09 07:45:00,
2013-12-09 02:46:00,25.8,24.6,30.23,South,177,2.0,3.0,95,0.00,,,0.00,Wunderground v.1.12,2013-12-09 07:46:00,
2013-12-09 02:48:00,25.8,24.6,30.22,SW,218,2.0,4.0,95,0.00,,,0.00,Wunderground v.1.12,2013-12-09 07:48:00,
2013-12-09 02:50:00,25.8,24.6,30.22,SSW,201,1.0,4.0,95,0.00,,,0.00,Wunderground v.1.12,2013-12-09 07:50:00,
2013-12-09 02:51:00,25.8,24.6,30.22,SW,215,3.0,4.0,95,0.00,,,0.00,Wunderground v.1.12,2013-12-09 07:51:00,
2013-12-09 02:52:00,25.8,24.6,30.22,South,188,1.0,4.0,95,0.00,,,0.00,Wunderground v.1.12,2013-12-09 07:52:00,
2013-12-09 02:54:00,25.8,24.6,30.22,WSW,244,1.0,7.0,95,0.00,,,0.00,Wunderground v.1.12,2013-12-09 07:54:00,
2013-12-09 02:56:00,25.8,24.6,30.22,SSE,164,1.0,7.0,95,0.00,,,0.00,Wunderground v.1.12,2013-12-09 07:56:00,
2013-12-09 02:57:00,25.9,24.7,30.21,SE,146,3.0,4.0,95,0.00,,,0.00,Wunderground v.1.12,2013-12-09 07:57:00,
2013-12-09 02:59:00,25.8,24.8,30.21,SW,230,2.0,6.0,96,0.00,,,0.00,Wunderground v.1.12,2013-12-09 07:59:00,
2013-12-09 03:01:00,25.9,24.9,30.21,South,170,0.0,6.0,96,0.00,,,0.00,Wunderground v.1.12,2013-12-09 08:01:00,
2013-12-09 03:02:00,25.9,24.9,30.21,West,278,2.0,4.0,96,0.00,,,0.00,Wunderground v.1.12,2013-12-09 08:02:00,
2013-12-09 03:04:00,25.9,24.9,30.21,South,176,0.0,4.0,96,0.00,,,0.00,Wunderground v.1.12,2013-12-09 08:04:00,
2013-12-09 03:06:00,26.0,25.0,30.21,WSW,238,1.0,4.0,96,0.00,,,0.00,Wunderground v.1.12,2013-12-09 08:06:00,
2013-12-09 03:07:00,26.0,25.0,30.21,WSW,255,0.0,3.0,96,0.00,,,0.00,Wunderground v.1.12,2013-12-09 08:07:00,
2013-12-09 03:09:00,26.0,25.0,30.21,West,274,1.0,4.0,96,0.00,,,0.00,Wunderground v.1.12,2013-12-09 08:09:00,
2013-12-09 03:10:00,26.0,25.0,30.21,SSW,192,2.0,4.0,96,0.00,,,0.00,Wunderground v.1.12,2013-12-09 08:10:00,
2013-12-09 03:11:00,26.0,25.0,30.20,SW,236,3.0,3.0,96,0.00,,,0.00,Wunderground v.1.12,2013-12-09 08:11:00,
2013-12-09 03:12:00,26.0,25.0,30.20,WNW,288,1.0,3.0,96,0.00,,,0.00,Wunderground v.1.12,2013-12-09 08:12:00,
2013-12-09 03:13:00,26.1,25.1,30.20,South,169,1.0,3.0,96,0.00,,,0.00,Wunderground v.1.12,2013-12-09 08:13:00,
2013-12-09 03:14:00,26.0,25.0,30.21,East,101,1.0,3.0,96,0.00,,,0.00,Wunderground v.1.12,2013-12-09 08:14:00,
2013-12-09 03:15:00,26.1,25.1,30.21,SSW,200,1.0,3.0,96,0.00,,,0.00,Wunderground v.1.12,2013-12-09 08:15:00,
2013-12-09 03:16:00,26.1,25.1,30.20,SSW,210,3.0,3.0,96,0.00,,,0.00,Wunderground v.1.12,2013-12-09 08:16:00,
2013-12-09 03:17:00,26.1,25.1,30.20,WSW,245,1.0,5.0,96,0.00,,,0.00,Wunderground v.1.12,2013-12-09 08:17:00,
2013-12-09 03:18:00,26.1,25.1,30.20,SW,214,3.0,5.0,96,0.00,,,0.00,Wunderground v.1.12,2013-12-09 08:18:00,
2013-12-09 03:20:00,26.1,25.1,30.20,SW,224,3.0,6.0,96,0.00,,,0.00,Wunderground v.1.12,2013-12-09 08:20:00,
2013-12-09 03:21:00,26.1,25.1,30.20,South,181,4.0,5.0,96,0.00,,,0.00,Wunderground v.1.12,2013-12-09 08:21:00,
2013-12-09 03:22:00,26.2,25.2,30.20,SSE,165,1.0,5.0,96,0.00,,,0.00,Wunderground v.1.12,2013-12-09 08:22:00,
2013-12-09 03:23:00,26.2,25.2,30.20,SW,218,1.0,5.0,96,0.00,,,0.00,Wunderground v.1.12,2013-12-09 08:23:00,
2013-12-09 03:25:00,26.3,25.3,30.20,SSW,207,0.0,5.0,96,0.00,,,0.00,Wunderground v.1.12,2013-12-09 08:25:00,
2013-12-09 03:26:00,26.3,25.3,30.19,South,179,5.0,5.0,96,0.00,,,0.00,Wunderground v.1.12,2013-12-09 08:26:00,
2013-12-09 03:27:00,26.3,25.3,30.19,WSW,246,0.0,5.0,96,0.00,,,0.00,Wunderground v.1.12,2013-12-09 08:27:00,
2013-12-09 03:29:00,26.3,25.3,30.20,South,170,4.0,8.0,96,0.00,,,0.00,Wunderground v.1.12,2013-12-09 08:29:00,
2013-12-09 03:30:00,26.4,25.4,30.20,SW,230,1.0,8.0,96,0.00,,,0.00,Wunderground v.1.12,2013-12-09 08:30:00,
2013-12-09 03:31:00,26.4,25.4,30.19,WSW,239,0.0,2.0,96,0.00,,,0.00,Wunderground v.1.12,2013-12-09 08:31:00,
2013-12-09 03:32:00,26.4,25.4,30.19,SW,225,0.0,2.0,96,0.00,,,0.00,Wunderground v.1.12,2013-12-09 08:32:00,
2013-12-09 03:34:00,26.4,25.4,30.19,ESE,120,1.0,6.0,96,0.00,,,0.00,Wunderground v.1.12,2013-12-09 08:34:00,
2013-12-09 03:35:00,26.4,25.4,30.19,SW,214,1.0,6.0,96,0.00,,,0.00,Wunderground v.1.12,2013-12-09 08:35:00,
2013-12-09 03:36:00,26.5,25.5,30.20,SSW,201,2.0,6.0,96,0.00,,,0.00,Wunderground v.1.12,2013-12-09 08:36:00,
2013-12-09 03:37:00,26.5,25.5,30.20,West,277,1.0,5.0,96,0.00,,,0.00,Wunderground v.1.12,2013-12-09 08:37:00,
2013-12-09 03:39:00,26.5,25.5,30.20,SW,233,2.0,5.0,96,0.00,,,0.00,Wunderground v.1.12,2013-12-09 08:39:00,
2013-12-09 03:40:00,26.4,25.2,30.20,South,186,3.0,5.0,95,0.00,,,0.00,Wunderground v.1.12,2013-12-09 08:40:00,
2013-12-09 03:41:00,26.4,25.2,30.20,SSW,212,3.0,5.0,95,0.00,,,0.00,Wunderground v.1.12,2013-12-09 08:41:00,
2013-12-09 03:42:00,26.4,25.2,30.19,South,187,2.0,4.0,95,0.00,,,0.00,Wunderground v.1.12,2013-12-09 08:42:00,
2013-12-09 03:44:00,26.4,25.2,30.19,South,186,3.0,8.0,95,0.00,,,0.00,Wunderground v.1.12,2013-12-09 08:44:00,
2013-12-09 03:45:00,26.4,25.2,30.18,SW,219,5.0,8.0,95,0.00,,,0.00,Wunderground v.1.12,2013-12-09 08:45:00,
2013-12-09 03:46:00,26.4,25.2,30.18,South,183,2.0,3.0,95,0.00,,,0.00,Wunderground v.1.12,2013-12-09 08:46:00,
2013-12-09 03:47:00,26.4,25.2,30.19,South,190,1.0,3.0,95,0.00,,,0.00,Wunderground v.1.12,2013-12-09 08:47:00,
2013-12-09 03:49:00,26.4,25.2,30.19,SSE,162,1.0,4.0,95,0.00,,,0.00,Wunderground v.1.12,2013-12-09 08:49:00,
2013-12-09 03:50:00,26.3,25.1,30.18,SSW,212,2.0,4.0,95,0.00,,,0.00,Wunderground v.1.12,2013-12-09 08:50:00,
2013-12-09 03:51:00,26.3,25.1,30.18,WSW,246,2.0,4.0,95,0.00,,,0.00,Wunderground v.1.12,2013-12-09 08:51:00,
2013-12-09 03:52:00,26.3,25.1,30.18,WSW,248,3.0,4.0,95,0.00,,,0.00,Wunderground v.1.12,2013-12-09 08:52:00,
2013-12-09 03:54:00,26.3,25.1,30.19,South,181,1.0,4.0,95,0.00,,,0.00,Wunderground v.1.12,2013-12-09 08:54:00,
2013-12-09 03:56:00,26.3,25.1,30.19,WSW,252,2.0,2.0,95,0.00,,,0.00,Wunderground v.1.12,2013-12-09 08:56:00,
2013-12-09 03:57:00,26.3,25.1,30.19,South,170,0.0,3.0,95,0.00,,,0.00,Wunderground v.1.12,2013-12-09 08:57:00,
2013-12-09 03:59:00,26.3,25.1,30.19,WSW,240,3.0,6.0,95,0.00,,,0.00,Wunderground v.1.12,2013-12-09 08:59:00,
2013-12-09 04:01:00,26.3,25.1,30.18,North,356,1.0,2.0,95,0.00,,,0.00,Wunderground v.1.12,2013-12-09 09:01:00,
2013-12-09 04:02:00,26.3,25.1,30.18,South,186,0.0,5.0,95,0.00,,,0.00,Wunderground v.1.12,2013-12-09 09:02:00,
2013-12-09 04:04:00,26.4,25.2,30.19,SSE,162,1.0,5.0,95,0.00,,,0.00,Wunderground v.1.12,2013-12-09 09:04:00,
2013-12-09 04:06:00,26.4,25.2,30.18,SSW,193,3.0,3.0,95,0.00,,,0.00,Wunderground v.1.12,2013-12-09 09:06:00,
2013-12-09 04:07:00,26.4,25.2,30.18,WSW,245,2.0,3.0,95,0.00,,,0.00,Wunderground v.1.12,2013-12-09 09:07:00,
2013-12-09 04:08:00,26.4,25.2,30.18,SSE,160,1.0,3.0,95,0.00,,,0.00,Wunderground v.1.12,2013-12-09 09:08:00,
2013-12-09 04:10:00,26.4,25.2,30.18,SSE,153,5.0,5.0,95,0.00,,,0.00,Wunderground v.1.12,2013-12-09 09:10:00,
2013-12-09 04:11:00,26.4,25.2,30.18,SW,215,1.0,2.0,95,0.00,,,0.00,Wunderground v.1.12,2013-12-09 09:11:00,
2013-12-09 04:12:00,26.5,25.3,30.17,South,187,2.0,2.0,95,0.00,,,0.00,Wunderground v.1.12,2013-12-09 09:12:00,
2013-12-09 04:13:00,26.5,25.3,30.17,SW,236,4.0,4.0,95,0.00,,,0.00,Wunderground v.1.12,2013-12-09 09:13:00,
2013-12-09 04:15:00,26.5,25.5,30.18,WSW,252,4.0,5.0,96,0.00,,,0.00,Wunderground v.1.12,2013-12-09 09:15:00,
2013-12-09 04:16:00,26.5,25.5,30.18,SSW,197,2.0,2.0,96,0.00,,,0.00,Wunderground v.1.12,2013-12-09 09:16:00,
2013-12-09 04:17:00,26.6,25.6,30.18,SSE,166,1.0,5.0,96,0.00,,,0.00,Wunderground v.1.12,2013-12-09 09:17:00,
2013-12-09 04:18:00,26.6,25.6,30.18,West,264,2.0,5.0,96,0.00,,,0.00,Wunderground v.1.12,2013-12-09 09:18:00,
2013-12-09 04:20:00,26.6,25.6,30.18,South,180,0.0,5.0,96,0.00,,,0.00,Wunderground v.1.12,2013-12-09 09:20:00,
2013-12-09 04:21:00,26.7,25.7,30.18,WSW,240,2.0,3.0,96,0.00,,,0.00,Wunderground v.1.12,2013-12-09 09:21:00,
2013-12-09 04:23:00,26.7,25.7,30.17,WSW,248,4.0,5.0,96,0.00,,,0.00,Wunderground v.1.12,2013-12-09 09:23:00,
2013-12-09 04:25:00,26.6,25.4,30.17,SW,224,2.0,5.0,95,0.00,,,0.00,Wunderground v.1.12,2013-12-09 09:25:00,
2013-12-09 04:26:00,26.7,25.5,30.18,SSW,197,5.0,6.0,95,0.00,,,0.00,Wunderground v.1.12,2013-12-09 09:26:00,
2013-12-09 04:28:00,26.6,25.4,30.18,WSW,243,2.0,6.0,95,0.00,,,0.00,Wunderground v.1.12,2013-12-09 09:28:00,
2013-12-09 04:30:00,26.6,25.4,30.18,South,176,1.0,6.0,95,0.00,,,0.00,Wunderground v.1.12,2013-12-09 09:30:00,
2013-12-09 04:31:00,26.6,25.4,30.17,SW,214,3.0,3.0,95,0.00,,,0.00,Wunderground v.1.12,2013-12-09 09:31:00,
2013-12-09 04:32:00,26.6,25.4,30.17,SSW,201,2.0,3.0,95,0.00,,,0.00,Wunderground v.1.12,2013-12-09 09:32:00,
2013-12-09 04:33:00,26.6,25.4,30.17,WSW,245,4.0,5.0,95,0.00,,,0.00,Wunderground v.1.12,2013-12-09 09:33:00,
2013-12-09 04:35:00,26.6,25.4,30.17,SW,236,4.0,5.0,95,0.00,,,0.00,Wunderground v.1.12,2013-12-09 09:35:00,
2013-12-09 04:37:00,26.6,25.4,30.18,WSW,252,4.0,4.0,95,0.00,,,0.00,Wunderground v.1.12,2013-12-09 09:37:00,
2013-12-09 04:38:00,26.6,25.4,30.18,SW,229,3.0,5.0,95,0.00,,,0.00,Wunderground v.1.12,2013-12-09 09:38:00,
2013-12-09 04:41:00,26.7,25.7,30.18,South,172,4.0,4.0,96,0.00,,,0.00,Wunderground v.1.12,2013-12-09 09:41:00,
2013-12-09 04:42:00,26.7,25.7,30.18,WSW,245,2.0,4.0,96,0.00,,,0.00,Wunderground v.1.12,2013-12-09 09:42:00,
2013-12-09 04:43:00,26.7,25.7,30.18,WSW,245,3.0,5.0,96,0.00,,,0.00,Wunderground v.1.12,2013-12-09 09:43:00,
2013-12-09 04:46:00,26.8,25.8,30.18,SW,236,5.0,5.0,96,0.00,,,0.00,Wunderground v.1.12,2013-12-09 09:46:00,
2013-12-09 04:47:00,26.8,25.8,30.18,WSW,257,3.0,5.0,96,0.00,,,0.00,Wunderground v.1.12,2013-12-09 09:47:00,
2013-12-09 04:48:00,26.8,25.8,30.18,SW,226,1.0,5.0,96,0.00,,,0.00,Wunderground v.1.12,2013-12-09 09:48:00,
2013-12-09 04:49:00,26.8,25.8,30.18,West,263,4.0,5.0,96,0.00,,,0.00,Wunderground v.1.12,2013-12-09 09:49:00,
2013-12-09 04:52:00,26.9,25.9,30.17,South,176,2.0,2.0,96,0.00,,,0.00,Wunderground v.1.12,2013-12-09 09:52:00,
2013-12-09 04:53:00,26.9,25.9,30.17,WSW,240,2.0,4.0,96,0.00,,,0.00,Wunderground v.1.12,2013-12-09 09:53:00,
2013-12-09 04:54:00,26.9,25.9,30.17,SW,226,2.0,4.0,96,0.00,,,0.00,Wunderground v.1.12,2013-12-09 09:54:00,
2013-12-09 04:57:00,27.0,26.0,30.17,SW,222,0.0,2.0,96,0.00,,,0.00,Wunderground v.1.12,2013-12-09 09:57:00,
2013-12-09 04:58:00,27.0,26.0,30.17,WSW,258,1.0,3.0,96,0.00,,,0.00,Wunderground v.1.12,2013-12-09 09:58:00,
2013-12-09 04:59:00,27.0,26.0,30.17,West,259,1.0,3.0,96,0.00,,,0.00,Wunderground v.1.12,2013-12-09 09:59:00,
2013-12-09 05:02:00,27.1,26.1,30.17,SSE,153,2.0,5.0,96,0.00,,,0.00,Wunderground v.1.12,2013-12-09 10:02:00,
2013-12-09 05:03:00,27.1,26.1,30.17,SSW,210,5.0,5.0,96,0.00,,,0.00,Wunderground v.1.12,2013-12-09 10:03:00,
2013-12-09 05:04:00,27.1,26.1,30.17,WSW,238,4.0,6.0,96,0.00,,,0.00,Wunderground v.1.12,2013-12-09 10:04:00,
2013-12-09 05:07:00,27.1,26.1,30.17,WSW,255,2.0,7.0,96,0.00,,,0.00,Wunderground v.1.12,2013-12-09 10:07:00,
2013-12-09 05:08:00,27.1,26.1,30.17,SW,217,3.0,8.0,96,0.00,,,0.00,Wunderground v.1.12,2013-12-09 10:08:00,
2013-12-09 05:09:00,27.1,26.1,30.18,SW,232,6.0,8.0,96,0.00,,,0.00,Wunderground v.1.12,2013-12-09 10:09:00,
2013-12-09 05:12:00,27.1,26.1,30.17,South,184,1.0,4.0,96,0.00,,,0.00,Wunderground v.1.12,2013-12-09 10:12:00,
2013-12-09 05:13:00,27.1,26.1,30.17,SW,230,3.0,4.0,96,0.00,,,0.00,Wunderground v.1.12,2013-12-09 10:13:00,
2013-12-09 05:14:00,27.2,26.2,30.17,South,176,2.0,4.0,96,0.00,,,0.00,Wunderground v.1.12,2013-12-09 10:14:00,
2013-12-09 05:17:00,27.1,25.9,30.16,WSW,243,1.0,3.0,95,0.00,,,0.00,Wunderground v.1.12,2013-12-09 10:17:00,
2013-12-09 05:18:00,27.2,26.0,30.17,West,266,4.0,6.0,95,0.00,,,0.00,Wunderground v.1.12,2013-12-09 10:18:00,
2013-12-09 05:19:00,27.2,26.0,30.17,WNW,298,1.0,6.0,95,0.00,,,0.00,Wunderground v.1.12,2013-12-09 10:19:00,
2013-12-09 05:22:00,27.2,26.2,30.17,WSW,253,4.0,4.0,96,0.00,,,0.00,Wunderground v.1.12,2013-12-09 10:22:00,
2013-12-09 05:23:00,27.2,26.2,30.16,West,260,3.0,5.0,96,0.00,,,0.00,Wunderground v.1.12,2013-12-09 10:23:00,
2013-12-09 05:24:00,27.2,26.2,30.17,South,170,2.0,5.0,96,0.00,,,0.00,Wunderground v.1.12,2013-12-09 10:24:00,
2013-12-09 05:25:00,27.3,26.3,30.16,South,184,4.0,5.0,96,0.00,,,0.00,Wunderground v.1.12,2013-12-09 10:25:00,
2013-12-09 05:28:00,27.3,26.3,30.16,SSE,153,1.0,5.0,96,0.00,,,0.00,Wunderground v.1.12,2013-12-09 10:28:00,
2013-12-09 05:29:00,27.3,26.3,30.16,ESE,102,2.0,5.0,96,0.00,,,0.00,Wunderground v.1.12,2013-12-09 10:29:00,
2013-12-09 05:30:00,27.3,26.3,30.16,WSW,248,3.0,5.0,96,0.00,,,0.00,Wunderground v.1.12,2013-12-09 10:30:00,
2013-12-09 05:33:00,27.3,26.1,30.16,South,181,1.0,5.0,95,0.00,,,0.00,Wunderground v.1.12,2013-12-09 10:33:00,
2013-12-09 05:34:00,27.3,26.1,30.16,SSE,167,0.0,5.0,95,0.00,,,0.00,Wunderground v.1.12,2013-12-09 10:34:00,
2013-12-09 05:35:00,27.3,26.1,30.16,SSE,148,0.0,5.0,95,0.00,,,0.00,Wunderground v.1.12,2013-12-09 10:35:00,
2013-12-09 05:38:00,27.4,26.2,30.16,South,170,0.0,4.0,95,0.00,,,0.00,Wunderground v.1.12,2013-12-09 10:38:00,
2013-12-09 05:39:00,27.4,26.2,30.16,SSE,155,1.0,4.0,95,0.00,,,0.00,Wunderground v.1.12,2013-12-09 10:39:00,
2013-12-09 05:40:00,27.4,26.2,30.16,SSW,207,0.0,4.0,95,0.00,,,0.00,Wunderground v.1.12,2013-12-09 10:40:00,
2013-12-09 05:43:00,27.5,26.3,30.15,SSW,204,4.0,4.0,95,0.00,,,0.00,Wunderground v.1.12,2013-12-09 10:43:00,
2013-12-09 05:44:00,27.5,26.3,30.15,SW,221,3.0,5.0,95,0.00,,,0.00,Wunderground v.1.12,2013-12-09 10:44:00,
2013-12-09 05:45:00,27.5,26.5,30.15,SSW,194,1.0,5.0,96,0.00,,,0.00,Wunderground v.1.12,2013-12-09 10:45:00,
2013-12-09 05:46:00,27.5,26.5,30.15,WSW,256,3.0,4.0,96,0.00,,,0.00,Wunderground v.1.12,2013-12-09 10:46:00,
2013-12-09 05:48:00,27.6,26.6,30.16,South,173,2.0,4.0,96,0.00,,,0.00,Wunderground v.1.12,2013-12-09 10:48:00,
2013-12-09 05:49:00,27.6,26.6,30.16,South,174,1.0,4.0,96,0.00,,,0.00,Wunderground v.1.12,2013-12-09 10:49:00,
2013-12-09 05:50:00,27.6,26.6,30.16,West,267,0.0,4.0,96,0.00,,,0.00,Wunderground v.1.12,2013-12-09 10:50:00,
2013-12-09 05:51:00,27.7,26.7,30.15,SE,143,1.0,2.0,96,0.00,,,0.00,Wunderground v.1.12,2013-12-09 10:51:00,
2013-12-09 05:53:00,27.7,26.5,30.15,ESE,121,2.0,4.0,95,0.00,,,0.00,Wunderground v.1.12,2013-12-09 10:53:00,
2013-12-09 05:54:00,27.7,26.7,30.15,SSW,210,1.0,4.0,96,0.00,,,0.00,Wunderground v.1.12,2013-12-09 10:54:00,
2013-12-09 05:55:00,27.8,26.8,30.15,South,184,0.0,4.0,96,0.00,,,0.00,Wunderground v.1.12,2013-12-09 10:55:00,
2013-12-09 05:56:00,27.7,26.5,30.15,SE,144,1.0,1.0,95,0.00,,,0.00,Wunderground v.1.12,2013-12-09 10:56:00,
2013-12-09 05:59:00,27.8,26.6,30.14,SSE,153,1.0,1.0,95,0.00,,,0.00,Wunderground v.1.12,2013-12-09 10:59:00,
2013-12-09 06:00:00,27.8,26.6,30.15,South,186,0.0,1.0,95,0.00,,,0.00,Wunderground v.1.12,2013-12-09 11:00:00,
2013-12-09 06:01:00,27.8,26.6,30.15,South,184,2.0,2.0,95,0.00,,,0.00,Wunderground v.1.12,2013-12-09 11:01:00,
2013-12-09 06:04:00,27.9,26.9,30.16,WSW,250,2.0,4.0,96,0.00,,,0.00,Wunderground v.1.12,2013-12-09 11:04:00,
2013-12-09 06:05:00,27.9,26.9,30.16,WSW,255,1.0,4.0,96,0.00,,,0.00,Wunderground v.1.12,2013-12-09 11:05:00,
2013-12-09 06:06:00,28.0,27.0,30.16,NW,314,0.0,4.0,96,0.00,,,0.00,Wunderground v.1.12,2013-12-09 11:06:00,
2013-12-09 06:09:00,28.0,27.0,30.15,ESE,118,0.0,1.0,96,0.00,,,0.00,Wunderground v.1.12,2013-12-09 11:09:00,
2013-12-09 06:10:00,28.1,27.1,30.15,ESE,118,0.0,1.0,96,0.00,,,0.00,Wunderground v.1.12,2013-12-09 11:10:00,
2013-12-09 06:11:00,28.1,27.1,30.15,SSE,162,1.0,1.0,96,0.00,,,0.00,Wunderground v.1.12,2013-12-09 11:11:00,
2013-12-09 06:14:00,28.1,27.1,30.15,SSW,200,2.0,3.0,96,0.00,,,0.00,Wunderground v.1.12,2013-12-09 11:14:00,
2013-12-09 06:15:00,28.2,27.2,30.15,SSW,212,0.0,3.0,96,0.00,,,0.00,Wunderground v.1.12,2013-12-09 11:15:00,
2013-12-09 06:16:00,28.2,27.2,30.14,South,181,1.0,1.0,96,0.00,,,0.00,Wunderground v.1.12,2013-12-09 11:16:00,
2013-12-09 06:19:00,28.2,27.2,30.14,West,259,3.0,4.0,96,0.00,,,0.00,Wunderground v.1.12,2013-12-09 11:19:00,
2013-12-09 06:20:00,28.2,27.2,30.14,SW,236,2.0,4.0,96,0.00,,,0.00,Wunderground v.1.12,2013-12-09 11:20:00,
2013-12-09 06:21:00,28.2,27.2,30.14,SSE,167,2.0,2.0,96,0.00,,,0.00,Wunderground v.1.12,2013-12-09 11:21:00,
2013-12-09 06:24:00,28.2,27.2,30.14,South,179,1.0,5.0,96,0.00,,,0.00,Wunderground v.1.12,2013-12-09 11:24:00,
2013-12-09 06:25:00,28.2,27.2,30.14,WSW,248,2.0,5.0,96,0.00,,,0.00,Wunderground v.1.12,2013-12-09 11:25:00,
2013-12-09 06:26:00,28.2,27.2,30.14,SW,218,1.0,1.0,96,0.00,,,0.00,Wunderground v.1.12,2013-12-09 11:26:00,
2013-12-09 06:27:00,28.2,27.2,30.14,SW,216,2.0,2.0,96,0.00,,,0.00,Wunderground v.1.12,2013-12-09 11:27:00,
2013-12-09 06:30:00,28.2,27.2,30.14,South,188,3.0,4.0,96,0.00,,,0.00,Wunderground v.1.12,2013-12-09 11:30:00,
2013-12-09 06:31:00,28.2,27.2,30.14,WSW,242,3.0,3.0,96,0.00,,,0.00,Wunderground v.1.12,2013-12-09 11:31:00,
2013-12-09 06:32:00,28.2,27.2,30.14,WSW,239,1.0,3.0,96,0.00,,,0.00,Wunderground v.1.12,2013-12-09 11:32:00,
2013-12-09 06:34:00,28.3,27.3,30.14,WSW,238,0.0,3.0,96,0.00,,,0.00,Wunderground v.1.12,2013-12-09 11:34:00,
2013-12-09 06:35:00,28.3,27.3,30.14,SSE,148,0.0,3.0,96,0.00,,,0.00,Wunderground v.1.12,2013-12-09 11:35:00,
2013-12-09 06:36:00,28.3,27.3,30.14,SSW,198,0.0,1.0,96,0.00,,,0.00,Wunderground v.1.12,2013-12-09 11:36:00,
2013-12-09 06:37:00,28.3,27.3,30.14,SE,127,0.0,1.0,96,0.00,,,0.00,Wunderground v.1.12,2013-12-09 11:37:00,
2013-12-09 06:40:00,28.4,27.4,30.14,West,260,1.0,2.0,96,0.00,,,0.00,Wunderground v.1.12,2013-12-09 11:40:00,
2013-12-09 06:41:00,28.4,27.4,30.14,ESE,117,1.0,1.0,96,0.00,,,0.00,Wunderground v.1.12,2013-12-09 11:41:00,
2013-12-09 06:42:00,28.4,27.4,30.14,SE,141,0.0,1.0,96,0.00,,,0.00,Wunderground v.1.12,2013-12-09 11:42:00,
2013-12-09 06:45:00,28.5,27.5,30.13,WNW,292,0.0,3.0,96,0.00,,,0.00,Wunderground v.1.12,2013-12-09 11:45:00,
2013-12-09 06:46:00,28.6,27.6,30.13,SW,224,1.0,1.0,96,0.00,,,0.00,Wunderground v.1.12,2013-12-09 11:46:00,
2013-12-09 06:47:00,28.6,27.6,30.14,SW,236,1.0,1.0,96,0.00,,,0.00,Wunderground v.1.12,2013-12-09 11:47:00,
2013-12-09 06:50:00,28.7,27.7,30.13,SSW,208,0.0,1.0,96,0.00,,,0.00,Wunderground v.1.12,2013-12-09 11:50:00,
2013-12-09 06:51:00,28.7,27.7,30.13,SSW,207,0.0,0.0,96,0.00,,,0.00,Wunderground v.1.12,2013-12-09 11:51:00,
2013-12-09 06:52:00,28.6,27.6,30.13,SSW,208,0.0,0.0,96,0.00,,,0.00,Wunderground v.1.12,2013-12-09 11:52:00,
2013-12-09 06:55:00,28.8,27.8,30.13,SSW,207,1.0,3.0,96,0.00,,,0.00,Wunderground v.1.12,2013-12-09 11:55:00,
2013-12-09 06:56:00,28.8,27.8,30.13,SSW,207,0.0,0.0,96,0.00,,,0.00,Wunderground v.1.12,2013-12-09 11:56:00,
2013-12-09 06:57:00,28.8,27.8,30.13,SSW,207,0.0,0.0,96,0.00,,,0.00,Wunderground v.1.12,2013-12-09 11:57:00,
2013-12-09 07:00:00,28.9,27.9,30.13,SW,235,2.0,3.0,96,0.00,,,0.00,Wunderground v.1.12,2013-12-09 12:00:00,
2013-12-09 07:01:00,28.9,27.9,30.14,SSE,158,1.0,1.0,96,0.00,,,0.00,Wunderground v.1.12,2013-12-09 12:01:00,
2013-12-09 07:02:00,28.9,27.9,30.14,SW,226,2.0,2.0,96,0.00,,,0.00,Wunderground v.1.12,2013-12-09 12:02:00,
2013-12-09 07:03:00,29.0,28.0,30.14,WSW,243,0.0,2.0,96,0.00,,,0.00,Wunderground v.1.12,2013-12-09 12:03:00,
2013-12-09 07:05:00,29.1,28.1,30.14,SW,231,1.0,3.0,96,0.00,,,0.00,Wunderground v.1.12,2013-12-09 12:05:00,
2013-12-09 07:06:00,29.1,28.1,30.14,WSW,238,1.0,1.0,96,0.00,,,0.00,Wunderground v.1.12,2013-12-09 12:06:00,
2013-12-09 07:07:00,29.1,28.1,30.14,SW,225,1.0,2.0,96,0.00,,,0.00,Wunderground v.1.12,2013-12-09 12:07:00,
2013-12-09 07:08:00,29.1,28.1,30.14,SW,230,0.0,2.0,96,0.00,,,0.00,Wunderground v.1.12,2013-12-09 12:08:00,
2013-12-09 07:10:00,29.1,28.1,30.14,WSW,246,0.0,2.0,96,0.00,,,0.00,Wunderground v.1.12,2013-12-09 12:10:00,
2013-12-09 07:11:00,29.1,28.1,30.14,WSW,246,0.0,1.0,96,0.00,,,0.00,Wunderground v.1.12,2013-12-09 12:11:00,
2013-12-09 07:12:00,29.1,28.1,30.14,WSW,246,0.0,1.0,96,0.00,,,0.00,Wunderground v.1.12,2013-12-09 12:12:00,
2013-12-09 07:13:00,29.2,28.2,30.14,WSW,246,0.0,1.0,96,0.00,,,0.00,Wunderground v.1.12,2013-12-09 12:13:00,
2013-12-09 07:16:00,29.2,28.2,30.14,WSW,246,0.0,1.0,96,0.00,,,0.00,Wunderground v.1.12,2013-12-09 12:16:00,
2013-12-09 07:17:00,29.2,28.2,30.14,WSW,246,0.0,1.0,96,0.00,,,0.00,Wunderground v.1.12,2013-12-09 12:17:00,
2013-12-09 07:19:00,29.3,28.3,30.14,SW,233,0.0,1.0,96,0.00,,,0.00,Wunderground v.1.12,2013-12-09 12:19:00,
2013-12-09 07:21:00,29.2,28.2,30.14,SSW,210,0.0,1.0,96,0.00,,,0.00,Wunderground v.1.12,2013-12-09 12:21:00,
2013-12-09 07:22:00,29.3,28.3,30.14,SSW,210,0.0,0.0,96,0.00,,,0.00,Wunderground v.1.12,2013-12-09 12:22:00,
2013-12-09 07:24:00,29.3,28.3,30.14,WSW,252,0.0,1.0,96,0.00,,,0.00,Wunderground v.1.12,2013-12-09 12:24:00,
2013-12-09 07:26:00,29.3,28.3,30.14,SW,228,0.0,0.0,96,0.00,,,0.00,Wunderground v.1.12,2013-12-09 12:26:00,
2013-12-09 07:27:00,29.3,28.3,30.15,WSW,246,0.0,1.0,96,0.00,,,0.00,Wunderground v.1.12,2013-12-09 12:27:00,
2013-12-09 07:29:00,29.4,28.4,30.14,WSW,246,0.0,1.0,96,0.00,,,0.00,Wunderground v.1.12,2013-12-09 12:29:00,
2013-12-09 07:31:00,29.3,28.6,30.15,WSW,246,0.0,0.0,97,0.00,,,0.00,Wunderground v.1.12,2013-12-09 12:31:00,
2013-12-09 07:32:00,29.4,28.7,30.15,WSW,246,0.0,0.0,97,0.00,,,0.00,Wunderground v.1.12,2013-12-09 12:32:00,
2013-12-09 07:34:00,29.4,28.7,30.15,WSW,245,0.0,0.0,97,0.00,,,0.00,Wunderground v.1.12,2013-12-09 12:34:00,
2013-12-09 07:36:00,29.4,28.7,30.15,WSW,246,0.0,0.0,97,0.00,,,0.00,Wunderground v.1.12,2013-12-09 12:36:00,
2013-12-09 07:37:00,29.4,28.7,30.15,WSW,246,0.0,0.0,97,0.00,,,0.00,Wunderground v.1.12,2013-12-09 12:37:00,
2013-12-09 07:39:00,29.5,28.8,30.16,WSW,246,0.0,0.0,97,0.00,,,0.00,Wunderground v.1.12,2013-12-09 12:39:00,
2013-12-09 07:41:00,29.5,28.8,30.16,WSW,246,0.0,0.0,97,0.00,,,0.00,Wunderground v.1.12,2013-12-09 12:41:00,
2013-12-09 07:42:00,29.6,28.9,30.16,WSW,245,0.0,0.0,97,0.00,,,0.00,Wunderground v.1.12,2013-12-09 12:42:00,
2013-12-09 07:43:00,29.6,28.9,30.16,WSW,246,0.0,0.0,97,0.00,,,0.00,Wunderground v.1.12,2013-12-09 12:43:00,
2013-12-09 07:44:00,29.6,28.9,30.15,WSW,244,0.0,1.0,97,0.00,,,0.00,Wunderground v.1.12,2013-12-09 12:44:00,
2013-12-09 07:46:00,29.7,29.0,30.15,WSW,243,0.0,0.0,97,0.00,,,0.00,Wunderground v.1.12,2013-12-09 12:46:00,
2013-12-09 07:47:00,29.7,29.0,30.15,WSW,243,0.0,0.0,97,0.00,,,0.00,Wunderground v.1.12,2013-12-09 12:47:00,
2013-12-09 07:48:00,29.7,29.0,30.15,WSW,244,0.0,0.0,97,0.00,,,0.00,Wunderground v.1.12,2013-12-09 12:48:00,
2013-12-09 07:50:00,29.7,29.0,30.15,WSW,244,0.0,1.0,97,0.00,,,0.00,Wunderground v.1.12,2013-12-09 12:50:00,
2013-12-09 07:51:00,29.7,29.0,30.15,WSW,243,0.0,0.0,97,0.00,,,0.00,Wunderground v.1.12,2013-12-09 12:51:00,
2013-12-09 07:52:00,29.7,29.0,30.15,WSW,244,0.0,0.0,97,0.00,,,0.00,Wunderground v.1.12,2013-12-09 12:52:00,
2013-12-09 07:53:00,29.7,29.0,30.15,SW,224,0.0,1.0,97,0.00,,,0.00,Wunderground v.1.12,2013-12-09 12:53:00,
2013-12-09 07:55:00,29.7,29.0,30.15,SSW,204,1.0,1.0,97,0.00,,,0.00,Wunderground v.1.12,2013-12-09 12:55:00,
2013-12-09 07:57:00,29.7,29.0,30.15,South,187,0.0,1.0,97,0.00,,,0.00,Wunderground v.1.12,2013-12-09 12:57:00,
2013-12-09 07:58:00,29.7,29.0,30.14,South,179,0.0,1.0,97,0.00,,,0.00,Wunderground v.1.12,2013-12-09 12:58:00,
2013-12-09 08:00:00,29.8,29.1,30.14,SSE,156,0.0,1.0,97,0.00,,,0.00,Wunderground v.1.12,2013-12-09 13:00:00,
2013-12-09 08:02:00,29.8,29.1,30.14,South,177,0.0,0.0,97,0.00,,,0.00,Wunderground v.1.12,2013-12-09 13:02:00,
2013-12-09 08:03:00,29.9,29.2,30.14,SSW,208,0.0,1.0,97,0.00,,,0.00,Wunderground v.1.12,2013-12-09 13:03:00,
2013-12-09 08:06:00,29.9,29.2,30.14,South,190,0.0,1.0,97,0.00,,,0.00,Wunderground v.1.12,2013-12-09 13:06:00,
2013-12-09 08:07:00,30.0,29.3,30.14,SE,130,0.0,1.0,97,0.00,,,0.00,Wunderground v.1.12,2013-12-09 13:07:00,
2013-12-09 08:09:00,30.1,29.4,30.14,SSE,160,2.0,3.0,97,0.00,,,0.00,Wunderground v.1.12,2013-12-09 13:09:00,
2013-12-09 08:11:00,30.2,29.5,30.14,SW,224,0.0,0.0,97,0.00,,,0.00,Wunderground v.1.12,2013-12-09 13:11:00,
2013-12-09 08:12:00,30.3,29.6,30.14,SSW,203,1.0,1.0,97,0.00,,,0.00,Wunderground v.1.12,2013-12-09 13:12:00,
2013-12-09 08:13:00,30.3,29.6,30.14,SW,231,1.0,1.0,97,0.00,,,0.00,Wunderground v.1.12,2013-12-09 13:13:00,
2013-12-09 08:14:00,30.4,29.7,30.14,SSW,203,1.0,2.0,97,0.00,,,0.00,Wunderground v.1.12,2013-12-09 13:14:00,
2013-12-09 08:16:00,30.5,29.8,30.14,SSW,198,0.0,1.0,97,0.00,,,0.00,Wunderground v.1.12,2013-12-09 13:16:00,
2013-12-09 08:17:00,30.6,29.9,30.14,SSW,198,1.0,2.0,97,0.00,,,0.00,Wunderground v.1.12,2013-12-09 13:17:00,
2013-12-09 08:18:00,30.7,30.0,30.14,SW,228,1.0,2.0,97,0.00,,,0.00,Wunderground v.1.12,2013-12-09 13:18:00,
2013-12-09 08:19:00,30.8,30.0,30.14,SSW,204,0.0,2.0,97,0.00,,,0.00,Wunderground v.1.12,2013-12-09 13:19:00,
2013-12-09 08:21:00,30.9,30.4,30.14,SSW,204,0.0,1.0,98,0.00,,,0.00,Wunderground v.1.12,2013-12-09 13:21:00,
2013-12-09 08:22:00,30.9,30.1,30.14,WSW,240,1.0,1.0,97,0.00,,,0.00,Wunderground v.1.12,2013-12-09 13:22:00,
2013-12-09 08:23:00,31.0,30.5,30.14,SSE,162,0.0,1.0,98,0.00,,,0.00,Wunderground v.1.12,2013-12-09 13:23:00,
2013-12-09 08:24:00,31.1,30.6,30.14,SW,229,1.0,1.0,98,0.00,,,0.00,Wunderground v.1.12,2013-12-09 13:24:00,
2013-12-09 08:26:00,31.2,30.7,30.14,SW,232,1.0,1.0,98,0.00,,,0.00,Wunderground v.1.12,2013-12-09 13:26:00,
2013-12-09 08:27:00,31.3,30.8,30.14,SW,231,1.0,1.0,98,0.00,,,0.00,Wunderground v.1.12,2013-12-09 13:27:00,
2013-12-09 08:28:00,31.3,30.8,30.14,South,190,0.0,3.0,98,0.00,,,0.00,Wunderground v.1.12,2013-12-09 13:28:00,
2013-12-09 08:29:00,31.4,30.9,30.14,SSW,195,1.0,3.0,98,0.00,,,0.00,Wunderground v.1.12,2013-12-09 13:29:00,
2013-12-09 08:31:00,31.5,31.0,30.15,SW,232,0.0,1.0,98,0.00,,,0.00,Wunderground v.1.12,2013-12-09 13:31:00,
2013-12-09 08:32:00,31.6,31.1,30.15,SW,230,0.0,1.0,98,0.00,,,0.00,Wunderground v.1.12,2013-12-09 13:32:00,
2013-12-09 08:33:00,31.7,31.2,30.15,SW,230,0.0,1.0,98,0.00,,,0.00,Wunderground v.1.12,2013-12-09 13:33:00,
2013-12-09 08:34:00,31.6,31.1,30.15,SW,219,0.0,1.0,98,0.00,,,0.00,Wunderground v.1.12,2013-12-09 13:34:00,
2013-12-09 08:37:00,31.7,31.2,30.15,SW,230,0.0,1.0,98,0.00,,,0.00,Wunderground v.1.12,2013-12-09 13:37:00,
2013-12-09 08:38:00,31.7,31.2,30.15,SW,232,0.0,1.0,98,0.00,,,0.00,Wunderground v.1.12,2013-12-09 13:38:00,
2013-12-09 08:39:00,31.7,31.2,30.15,SW,230,0.0,1.0,98,0.00,,,0.00,Wunderground v.1.12,2013-12-09 13:39:00,
2013-12-09 08:42:00,31.8,31.3,30.15,SW,233,0.0,1.0,98,0.00,,,0.00,Wunderground v.1.12,2013-12-09 13:42:00,
2013-12-09 08:43:00,31.9,31.4,30.15,SW,233,0.0,1.0,98,0.00,,,0.00,Wunderground v.1.12,2013-12-09 13:43:00,
2013-12-09 08:44:00,31.9,31.4,30.15,SW,233,0.0,1.0,98,0.00,,,0.00,Wunderground v.1.12,2013-12-09 13:44:00,
2013-12-09 08:47:00,31.8,31.3,30.14,SSW,200,0.0,0.0,98,0.00,,,0.00,Wunderground v.1.12,2013-12-09 13:47:00,
2013-12-09 08:48:00,31.8,31.3,30.14,SSW,201,0.0,0.0,98,0.00,,,0.00,Wunderground v.1.12,2013-12-09 13:48:00,
2013-12-09 08:49:00,31.9,31.4,30.14,SW,214,1.0,1.0,98,0.00,,,0.00,Wunderground v.1.12,2013-12-09 13:49:00,
2013-12-09 08:50:00,31.9,31.4,30.14,SW,216,0.0,1.0,98,0.00,,,0.00,Wunderground v.1.12,2013-12-09 13:50:00,
2013-12-09 08:53:00,31.8,31.0,30.14,SW,233,0.0,1.0,97,0.00,,,0.00,Wunderground v.1.12,2013-12-09 13:53:00,
2013-12-09 08:54:00,31.8,31.0,30.14,SW,229,0.0,1.0,97,0.00,,,0.00,Wunderground v.1.12,2013-12-09 13:54:00,
2013-12-09 08:55:00,31.7,30.9,30.14,SW,229,0.0,1.0,97,0.00,,,0.00,Wunderground v.1.12,2013-12-09 13:55:00,
2013-12-09 08:58:00,31.7,30.9,30.15,West,270,1.0,1.0,97,0.00,,,0.00,Wunderground v.1.12,2013-12-09 13:58:00,
2013-12-09 08:59:00,31.7,30.9,30.15,West,271,0.0,1.0,97,0.00,,,0.00,Wunderground v.1.12,2013-12-09 13:59:00,
2013-12-09 09:00:00,31.7,30.9,30.14,SW,229,1.0,1.0,97,0.00,,,0.00,Wunderground v.1.12,2013-12-09 14:00:00,
2013-12-09 09:03:00,31.8,31.0,30.14,South,171,1.0,1.0,97,0.00,,,0.00,Wunderground v.1.12,2013-12-09 14:03:00,
2013-12-09 09:04:00,31.8,31.0,30.14,South,172,0.0,1.0,97,0.00,,,0.00,Wunderground v.1.12,2013-12-09 14:04:00,
2013-12-09 09:05:00,31.8,31.0,30.14,SSW,197,0.0,1.0,97,0.00,,,0.00,Wunderground v.1.12,2013-12-09 14:05:00,
2013-12-09 09:08:00,31.8,31.0,30.14,SSW,201,0.0,1.0,97,0.00,,,0.00,Wunderground v.1.12,2013-12-09 14:08:00,
2013-12-09 09:09:00,31.8,31.0,30.14,WSW,238,0.0,2.0,97,0.00,,,0.00,Wunderground v.1.12,2013-12-09 14:09:00,
2013-12-09 09:10:00,31.9,31.1,30.14,WSW,238,0.0,2.0,97,0.00,,,0.00,Wunderground v.1.12,2013-12-09 14:10:00,
2013-12-09 09:13:00,31.9,31.1,30.14,South,188,0.0,1.0,97,0.00,,,0.00,Wunderground v.1.12,2013-12-09 14:13:00,
2013-12-09 09:14:00,31.9,31.1,30.14,SW,215,0.0,1.0,97,0.00,,,0.00,Wunderground v.1.12,2013-12-09 14:14:00,
2013-12-09 09:15:00,31.9,31.1,30.14,SW,214,0.0,1.0,97,0.00,,,0.00,Wunderground v.1.12,2013-12-09 14:15:00,
2013-12-09 09:18:00,31.9,31.1,30.14,WSW,239,0.0,1.0,97,0.00,,,0.00,Wunderground v.1.12,2013-12-09 14:18:00,
2013-12-09 09:19:00,31.9,31.1,30.14,South,174,0.0,1.0,97,0.00,,,0.00,Wunderground v.1.12,2013-12-09 14:19:00,
2013-12-09 09:20:00,31.9,31.1,30.14,South,174,0.0,1.0,97,0.00,,,0.00,Wunderground v.1.12,2013-12-09 14:20:00,
2013-12-09 09:23:00,32.1,31.3,30.14,SW,222,0.0,0.0,97,0.00,,,0.00,Wunderground v.1.12,2013-12-09 14:23:00,
2013-12-09 09:24:00,32.1,31.6,30.14,SW,221,0.0,0.0,98,0.00,,,0.00,Wunderground v.1.12,2013-12-09 14:24:00,
2013-12-09 09:25:00,32.1,31.6,30.14,SW,224,0.0,0.0,98,0.00,,,0.00,Wunderground v.1.12,2013-12-09 14:25:00,
2013-12-09 09:28:00,32.2,31.7,30.14,SW,229,0.0,1.0,98,0.00,,,0.00,Wunderground v.1.12,2013-12-09 14:28:00,
2013-12-09 09:29:00,32.2,31.7,30.14,SW,228,0.0,1.0,98,0.00,,,0.00,Wunderground v.1.12,2013-12-09 14:29:00,
2013-12-09 09:30:00,32.3,31.8,30.14,SW,229,0.0,1.0,98,0.00,,,0.00,Wunderground v.1.12,2013-12-09 14:30:00,
2013-12-09 09:33:00,32.3,31.8,30.14,WSW,240,0.0,1.0,98,0.00,,,0.00,Wunderground v.1.12,2013-12-09 14:33:00,
2013-12-09 09:34:00,32.3,31.8,30.14,WSW,240,0.0,1.0,98,0.00,,,0.00,Wunderground v.1.12,2013-12-09 14:34:00,
2013-12-09 09:35:00,32.2,31.7,30.14,WSW,240,0.0,1.0,98,0.00,,,0.00,Wunderground v.1.12,2013-12-09 14:35:00,
2013-12-09 09:39:00,32.1,31.3,30.14,WSW,240,0.0,0.0,97,0.00,,,0.00,Wunderground v.1.12,2013-12-09 14:39:00,
2013-12-09 09:40:00,32.1,31.3,30.14,WSW,240,0.0,0.0,97,0.00,,,0.00,Wunderground v.1.12,2013-12-09 14:40:00,
2013-12-09 09:41:00,32.1,31.3,30.13,WSW,240,0.0,0.0,97,0.00,,,0.00,Wunderground v.1.12,2013-12-09 14:41:00,
2013-12-09 09:44:00,32.1,31.3,30.13,WSW,239,0.0,0.0,97,0.00,,,0.00,Wunderground v.1.12,2013-12-09 14:44:00,
2013-12-09 09:45:00,32.1,31.3,30.13,WSW,240,0.0,0.0,97,0.00,,,0.00,Wunderground v.1.12,2013-12-09 14:45:00,
2013-12-09 09:46:00,32.1,31.3,30.13,WSW,239,0.0,0.0,97,0.00,,,0.00,Wunderground v.1.12,2013-12-09 14:46:00,
2013-12-09 09:49:00,32.1,31.3,30.13,WSW,239,0.0,0.0,97,0.00,,,0.00,Wunderground v.1.12,2013-12-09 14:49:00,
2013-12-09 09:50:00,32.1,31.3,30.13,WSW,239,0.0,0.0,97,0.00,,,0.00,Wunderground v.1.12,2013-12-09 14:50:00,
2013-12-09 09:51:00,32.1,31.3,30.13,WSW,239,0.0,0.0,97,0.00,,,0.00,Wunderground v.1.12,2013-12-09 14:51:00,
2013-12-09 09:54:00,32.2,31.4,30.13,WSW,240,0.0,0.0,97,0.00,,,0.00,Wunderground v.1.12,2013-12-09 14:54:00,
2013-12-09 09:55:00,32.3,31.5,30.13,WSW,239,0.0,0.0,97,0.00,,,0.00,Wunderground v.1.12,2013-12-09 14:55:00,
2013-12-09 09:56:00,32.3,31.5,30.13,WSW,239,0.0,0.0,97,0.00,,,0.00,Wunderground v.1.12,2013-12-09 14:56:00,
2013-12-09 09:59:00,32.3,31.5,30.14,WSW,239,0.0,0.0,97,0.00,,,0.00,Wunderground v.1.12,2013-12-09 14:59:00,
2013-12-09 10:01:00,32.3,31.5,30.14,WSW,239,0.0,0.0,97,0.00,,,0.00,Wunderground v.1.12,2013-12-09 15:01:00,
2013-12-09 10:02:00,32.3,31.5,30.14,WSW,240,0.0,0.0,97,0.00,,,0.00,Wunderground v.1.12,2013-12-09 15:02:00,
2013-12-09 10:04:00,32.4,31.6,30.14,WSW,239,0.0,0.0,97,0.00,,,0.00,Wunderground v.1.12,2013-12-09 15:04:00,
2013-12-09 10:06:00,32.5,32.0,30.14,WSW,239,0.0,0.0,98,0.00,,,0.00,Wunderground v.1.12,2013-12-09 15:06:00,
2013-12-09 10:07:00,32.4,31.9,30.14,WSW,240,0.0,0.0,98,0.00,,,0.00,Wunderground v.1.12,2013-12-09 15:07:00,
2013-12-09 10:09:00,32.4,31.9,30.14,WSW,240,0.0,0.0,98,0.00,,,0.00,Wunderground v.1.12,2013-12-09 15:09:00,
2013-12-09 10:11:00,32.5,32.0,30.14,SSW,212,0.0,0.0,98,0.00,,,0.00,Wunderground v.1.12,2013-12-09 15:11:00,
2013-12-09 10:12:00,32.5,32.0,30.14,SSW,212,0.0,0.0,98,0.00,,,0.00,Wunderground v.1.12,2013-12-09 15:12:00,
2013-12-09 10:14:00,32.6,32.1,30.14,SSW,212,0.0,0.0,98,0.00,,,0.00,Wunderground v.1.12,2013-12-09 15:14:00,
2013-12-09 10:16:00,32.6,32.1,30.14,SSW,212,0.0,0.0,98,0.00,,,0.00,Wunderground v.1.12,2013-12-09 15:16:00,
2013-12-09 10:17:00,32.6,32.1,30.14,SSW,212,0.0,0.0,98,0.00,,,0.00,Wunderground v.1.12,2013-12-09 15:17:00,
2013-12-09 10:19:00,32.7,32.2,30.14,WSW,249,0.0,1.0,98,0.00,,,0.00,Wunderground v.1.12,2013-12-09 15:19:00,
2013-12-09 10:20:00,32.7,32.2,30.14,West,266,0.0,1.0,98,0.00,,,0.00,Wunderground v.1.12,2013-12-09 15:20:00,
2013-12-09 10:21:00,32.7,32.2,30.14,West,266,0.0,0.0,98,0.00,,,0.00,Wunderground v.1.12,2013-12-09 15:21:00,
2013-12-09 10:22:00,32.7,32.2,30.14,West,266,0.0,0.0,98,0.00,,,0.00,Wunderground v.1.12,2013-12-09 15:22:00,
2013-12-09 10:24:00,32.8,32.3,30.14,West,266,0.0,0.0,98,0.00,,,0.00,Wunderground v.1.12,2013-12-09 15:24:00,
2013-12-09 10:25:00,32.8,32.3,30.14,West,266,0.0,0.0,98,0.00,,,0.00,Wunderground v.1.12,2013-12-09 15:25:00,
2013-12-09 10:26:00,32.9,32.4,30.14,West,266,0.0,1.0,98,0.00,,,0.00,Wunderground v.1.12,2013-12-09 15:26:00,
2013-12-09 10:27:00,32.9,32.4,30.14,West,266,0.0,1.0,98,0.00,,,0.00,Wunderground v.1.12,2013-12-09 15:27:00,
2013-12-09 10:29:00,32.9,32.4,30.14,West,266,0.0,1.0,98,0.00,,,0.00,Wunderground v.1.12,2013-12-09 15:29:00,
2013-12-09 10:31:00,33.0,32.5,30.14,West,266,0.0,0.0,98,0.00,,,0.00,Wunderground v.1.12,2013-12-09 15:31:00,
2013-12-09 10:32:00,33.1,32.6,30.14,West,266,0.0,0.0,98,0.00,,,0.00,Wunderground v.1.12,2013-12-09 15:32:00,
2013-12-09 10:34:00,33.1,32.6,30.14,WNW,285,2.0,2.0,98,0.00,,,0.00,Wunderground v.1.12,2013-12-09 15:34:00,
2013-12-09 10:36:00,33.3,32.8,30.14,West,268,0.0,0.0,98,0.00,,,0.00,Wunderground v.1.12,2013-12-09 15:36:00,
2013-12-09 10:37:00,33.4,32.9,30.14,WNW,284,1.0,1.0,98,0.00,,,0.00,Wunderground v.1.12,2013-12-09 15:37:00,
2013-12-09 10:38:00,33.4,32.9,30.14,West,262,0.0,2.0,98,0.00,,,0.00,Wunderground v.1.12,2013-12-09 15:38:00,
2013-12-09 10:39:00,33.5,33.0,30.14,SW,224,0.0,2.0,98,0.00,,,0.00,Wunderground v.1.12,2013-12-09 15:39:00,
2013-12-09 10:41:00,33.5,33.0,30.14,WSW,258,1.0,1.0,98,0.00,,,0.00,Wunderground v.1.12,2013-12-09 15:41:00,
2013-12-09 10:42:00,33.4,32.9,30.14,SW,229,0.0,1.0,98,0.00,,,0.00,Wunderground v.1.12,2013-12-09 15:42:00,
2013-12-09 10:43:00,33.3,32.8,30.14,WSW,243,0.0,1.0,98,0.00,,,0.00,Wunderground v.1.12,2013-12-09 15:43:00,
2013-12-09 10:45:00,33.4,32.9,30.14,SW,231,1.0,2.0,98,0.00,,,0.00,Wunderground v.1.12,2013-12-09 15:45:00,
2013-12-09 10:46:00,33.5,33.0,30.15,WSW,256,1.0,1.0,98,0.00,,,0.00,Wunderground v.1.12,2013-12-09 15:46:00,
2013-12-09 10:47:00,33.6,33.1,30.14,WSW,252,0.0,2.0,98,0.00,,,0.00,Wunderground v.1.12,2013-12-09 15:47:00,
2013-12-09 10:48:00,33.7,33.2,30.14,SSW,192,1.0,4.0,98,0.00,,,0.00,Wunderground v.1.12,2013-12-09 15:48:00,
2013-12-09 10:49:00,33.7,33.2,30.14,SW,233,0.0,4.0,98,0.00,,,0.00,Wunderground v.1.12,2013-12-09 15:49:00,
2013-12-09 10:50:00,33.8,33.3,30.14,WNW,286,2.0,4.0,98,0.00,,,0.00,Wunderground v.1.12,2013-12-09 15:50:00,
2013-12-09 10:51:00,33.9,33.4,30.14,WSW,243,2.0,2.0,98,0.00,,,0.00,Wunderground v.1.12,2013-12-09 15:51:00,
2013-12-09 10:52:00,33.9,33.4,30.14,SSW,212,1.0,2.0,98,0.00,,,0.00,Wunderground v.1.12,2013-12-09 15:52:00,
2013-12-09 10:53:00,33.8,33.3,30.14,WSW,257,0.0,2.0,98,0.00,,,0.00,Wunderground v.1.12,2013-12-09 15:53:00,
2013-12-09 10:54:00,33.8,33.3,30.14,WSW,246,1.0,2.0,98,0.00,,,0.00,Wunderground v.1.12,2013-12-09 15:54:00,
2013-12-09 10:55:00,33.8,33.3,30.14,WNW,282,1.0,2.0,98,0.00,,,0.00,Wunderground v.1.12,2013-12-09 15:55:00,
2013-12-09 10:56:00,33.9,33.4,30.14,West,263,2.0,3.0,98,0.00,,,0.00,Wunderground v.1.12,2013-12-09 15:56:00,
2013-12-09 10:57:00,34.0,33.5,30.14,WNW,285,3.0,3.0,98,0.00,,,0.00,Wunderground v.1.12,2013-12-09 15:57:00,
2013-12-09 10:59:00,34.2,33.7,30.14,West,277,3.0,4.0,98,0.00,,,0.00,Wunderground v.1.12,2013-12-09 15:59:00,
2013-12-09 11:00:00,34.3,33.8,30.14,SW,214,0.0,4.0,98,0.00,,,0.00,Wunderground v.1.12,2013-12-09 16:00:00,
2013-12-09 11:01:00,34.3,33.8,30.14,SW,229,0.0,1.0,98,0.00,,,0.00,Wunderground v.1.12,2013-12-09 16:01:00,
2013-12-09 11:02:00,34.3,33.8,30.14,NW,314,0.0,2.0,98,0.00,,,0.00,Wunderground v.1.12,2013-12-09 16:02:00,
2013-12-09 11:04:00,34.4,33.9,30.14,WNW,286,1.0,4.0,98,0.00,,,0.00,Wunderground v.1.12,2013-12-09 16:04:00,
2013-12-09 11:05:00,34.5,34.0,30.14,WNW,282,2.0,4.0,98,0.00,,,0.00,Wunderground v.1.12,2013-12-09 16:05:00,
2013-12-09 11:06:00,34.6,34.1,30.14,WNW,283,1.0,2.0,98,0.00,,,0.00,Wunderground v.1.12,2013-12-09 16:06:00,
2013-12-09 11:07:00,34.5,34.0,30.14,West,277,1.0,2.0,98,0.00,,,0.00,Wunderground v.1.12,2013-12-09 16:07:00,
2013-12-09 11:09:00,34.6,34.1,30.14,WNW,286,2.0,2.0,98,0.00,,,0.00,Wunderground v.1.12,2013-12-09 16:09:00,
2013-12-09 11:10:00,34.6,34.1,30.14,West,259,3.0,3.0,98,0.00,,,0.00,Wunderground v.1.12,2013-12-09 16:10:00,
2013-12-09 11:11:00,34.6,34.1,30.14,West,281,0.0,3.0,98,0.00,,,0.00,Wunderground v.1.12,2013-12-09 16:11:00,
2013-12-09 11:12:00,34.7,34.2,30.14,WNW,294,1.0,3.0,98,0.00,,,0.00,Wunderground v.1.12,2013-12-09 16:12:00,
2013-12-09 11:14:00,34.7,34.2,30.13,West,270,1.0,3.0,98,0.00,,,0.00,Wunderground v.1.12,2013-12-09 16:14:00,
2013-12-09 11:15:00,34.7,34.2,30.13,NW,308,2.0,3.0,98,0.00,,,0.00,Wunderground v.1.12,2013-12-09 16:15:00,
2013-12-09 11:16:00,34.7,34.2,30.13,WNW,284,1.0,3.0,98,0.00,,,0.00,Wunderground v.1.12,2013-12-09 16:16:00,
2013-12-09 11:17:00,34.7,34.2,30.13,West,264,1.0,3.0,98,0.00,,,0.00,Wunderground v.1.12,2013-12-09 16:17:00,
2013-12-09 11:18:00,34.7,34.2,30.13,West,277,1.0,3.0,98,0.00,,,0.00,Wunderground v.1.12,2013-12-09 16:18:00,
2013-12-09 11:19:00,34.7,34.2,30.13,WNW,291,2.0,3.0,98,0.00,,,0.00,Wunderground v.1.12,2013-12-09 16:19:00,
2013-12-09 11:20:00,34.8,34.3,30.13,WNW,290,2.0,2.0,98,0.00,,,0.00,Wunderground v.1.12,2013-12-09 16:20:00,
2013-12-09 11:22:00,34.8,34.3,30.13,WSW,253,0.0,3.0,98,0.00,,,0.00,Wunderground v.1.12,2013-12-09 16:22:00,
2013-12-09 11:23:00,34.8,34.3,30.13,WNW,301,1.0,3.0,98,0.00,,,0.00,Wunderground v.1.12,2013-12-09 16:23:00,
2013-12-09 11:24:00,34.9,34.4,30.13,WSW,239,0.0,3.0,98,0.00,,,0.00,Wunderground v.1.12,2013-12-09 16:24:00,
2013-12-09 11:25:00,34.8,34.3,30.13,West,267,1.0,1.0,98,0.00,,,0.00,Wunderground v.1.12,2013-12-09 16:25:00,
2013-12-09 11:26:00,34.9,34.4,30.13,WNW,283,1.0,1.0,98,0.00,,,0.00,Wunderground v.1.12,2013-12-09 16:26:00,
2013-12-09 11:27:00,34.9,34.4,30.13,WNW,284,0.0,1.0,98,0.00,,,0.00,Wunderground v.1.12,2013-12-09 16:27:00,
2013-12-09 11:28:00,34.9,34.4,30.13,WNW,283,0.0,1.0,98,0.00,,,0.00,Wunderground v.1.12,2013-12-09 16:28:00,
2013-12-09 11:29:00,34.9,34.4,30.13,WNW,290,1.0,1.0,98,0.00,,,0.00,Wunderground v.1.12,2013-12-09 16:29:00,
2013-12-09 11:31:00,34.9,34.4,30.13,WNW,283,2.0,3.0,98,0.00,,,0.00,Wunderground v.1.12,2013-12-09 16:31:00,
2013-12-09 11:32:00,34.9,34.4,30.12,WSW,252,1.0,4.0,98,0.00,,,0.00,Wunderground v.1.12,2013-12-09 16:32:00,
2013-12-09 11:33:00,35.0,34.5,30.12,West,267,3.0,4.0,98,0.00,,,0.00,Wunderground v.1.12,2013-12-09 16:33:00,
2013-12-09 11:34:00,35.0,34.5,30.12,WNW,298,2.0,4.0,98,0.00,,,0.00,Wunderground v.1.12,2013-12-09 16:34:00,
2013-12-09 11:36:00,35.0,34.5,30.12,WNW,285,2.0,2.0,98,0.00,,,0.00,Wunderground v.1.12,2013-12-09 16:36:00,
2013-12-09 11:37:00,35.0,34.5,30.12,WNW,293,4.0,5.0,98,0.00,,,0.00,Wunderground v.1.12,2013-12-09 16:37:00,
2013-12-09 11:38:00,35.1,34.6,30.12,West,274,3.0,5.0,98,0.00,,,0.00,Wunderground v.1.12,2013-12-09 16:38:00,
2013-12-09 11:39:00,35.1,34.6,30.12,NW,319,2.0,5.0,98,0.00,,,0.00,Wunderground v.1.12,2013-12-09 16:39:00,
2013-12-09 11:41:00,35.1,34.6,30.12,WNW,284,3.0,4.0,98,0.00,,,0.00,Wunderground v.1.12,2013-12-09 16:41:00,
2013-12-09 11:42:00,35.1,34.6,30.12,West,262,1.0,4.0,98,0.00,,,0.00,Wunderground v.1.12,2013-12-09 16:42:00,
2013-12-09 11:43:00,35.1,34.6,30.12,WNW,292,3.0,4.0,98,0.00,,,0.00,Wunderground v.1.12,2013-12-09 16:43:00,
2013-12-09 11:44:00,35.1,34.6,30.12,WNW,282,2.0,4.0,98,0.00,,,0.00,Wunderground v.1.12,2013-12-09 16:44:00,
2013-12-09 11:46:00,35.1,34.6,30.12,WNW,302,2.0,3.0,98,0.00,,,0.00,Wunderground v.1.12,2013-12-09 16:46:00,
2013-12-09 11:47:00,35.1,34.6,30.12,WNW,285,1.0,3.0,98,0.00,,,0.00,Wunderground v.1.12,2013-12-09 16:47:00,
2013-12-09 11:48:00,35.1,34.6,30.12,NW,304,2.0,3.0,98,0.00,,,0.00,Wunderground v.1.12,2013-12-09 16:48:00,
2013-12-09 11:50:00,35.1,34.6,30.12,NW,304,0.0,3.0,98,0.00,,,0.00,Wunderground v.1.12,2013-12-09 16:50:00,
2013-12-09 11:51:00,35.1,34.6,30.12,WNW,283,1.0,2.0,98,0.00,,,0.00,Wunderground v.1.12,2013-12-09 16:51:00,
2013-12-09 11:53:00,35.2,34.7,30.12,WNW,294,2.0,5.0,98,0.00,,,0.00,Wunderground v.1.12,2013-12-09 16:53:00,
2013-12-09 11:54:00,35.1,34.6,30.11,WNW,284,1.0,5.0,98,0.00,,,0.00,Wunderground v.1.12,2013-12-09 16:54:00,
2013-12-09 11:55:00,35.2,34.7,30.11,West,281,2.0,5.0,98,0.00,,,0.00,Wunderground v.1.12,2013-12-09 16:55:00,
2013-12-09 11:56:00,35.2,34.7,30.11,WNW,297,3.0,6.0,98,0.00,,,0.00,Wunderground v.1.12,2013-12-09 16:56:00,
2013-12-09 11:57:00,35.2,34.7,30.11,WNW,291,2.0,6.0,98,0.00,,,0.00,Wunderground v.1.12,2013-12-09 16:57:00,
2013-12-09 11:58:00,35.2,34.7,30.12,WNW,300,4.0,6.0,98,0.00,,,0.00,Wunderground v.1.12,2013-12-09 16:58:00,
2013-12-09 11:59:00,35.2,34.7,30.11,WNW,295,2.0,6.0,98,0.00,,,0.00,Wunderground v.1.12,2013-12-09 16:59:00,
2013-12-09 12:00:00,35.2,34.7,30.11,WNW,302,2.0,6.0,98,0.00,,,0.00,Wunderground v.1.12,2013-12-09 17:00:00,
2013-12-09 12:01:00,35.2,34.7,30.11,WNW,294,1.0,4.0,98,0.00,,,0.00,Wunderground v.1.12,2013-12-09 17:01:00,
2013-12-09 12:02:00,35.1,34.6,30.11,WNW,292,2.0,4.0,98,0.00,,,0.00,Wunderground v.1.12,2013-12-09 17:02:00,
2013-12-09 12:03:00,35.2,34.7,30.11,WNW,298,3.0,5.0,98,0.00,,,0.00,Wunderground v.1.12,2013-12-09 17:03:00,
2013-12-09 12:04:00,35.2,34.7,30.11,WNW,288,1.0,5.0,98,0.00,,,0.00,Wunderground v.1.12,2013-12-09 17:04:00,
2013-12-09 12:05:00,35.1,34.6,30.11,WNW,283,0.0,5.0,98,0.00,,,0.00,Wunderground v.1.12,2013-12-09 17:05:00,
2013-12-09 12:07:00,35.1,34.6,30.11,West,281,2.0,4.0,98,0.00,,,0.00,Wunderground v.1.12,2013-12-09 17:07:00,
2013-12-09 12:08:00,35.1,34.6,30.11,WNW,296,1.0,4.0,98,0.00,,,0.00,Wunderground v.1.12,2013-12-09 17:08:00,
2013-12-09 12:09:00,35.1,34.6,30.11,WNW,297,1.0,4.0,98,0.00,,,0.00,Wunderground v.1.12,2013-12-09 17:09:00,
2013-12-09 12:10:00,35.1,34.6,30.11,NW,311,2.0,4.0,98,0.00,,,0.00,Wunderground v.1.12,2013-12-09 17:10:00,
2013-12-09 12:12:00,35.1,34.6,30.11,WNW,296,2.0,3.0,98,0.00,,,0.00,Wunderground v.1.12,2013-12-09 17:12:00,
2013-12-09 12:13:00,35.1,34.6,30.11,WNW,298,0.0,3.0,98,0.00,,,0.00,Wunderground v.1.12,2013-12-09 17:13:00,
2013-12-09 12:14:00,35.1,34.6,30.11,WNW,301,1.0,3.0,98,0.00,,,0.00,Wunderground v.1.12,2013-12-09 17:14:00,
2013-12-09 12:15:00,35.2,34.7,30.11,NW,316,1.0,3.0,98,0.00,,,0.00,Wunderground v.1.12,2013-12-09 17:15:00,
2013-12-09 12:17:00,35.1,34.6,30.11,WNW,295,3.0,6.0,98,0.00,,,0.00,Wunderground v.1.12,2013-12-09 17:17:00,
2013-12-09 12:18:00,35.2,34.7,30.11,NW,314,0.0,6.0,98,0.00,,,0.00,Wunderground v.1.12,2013-12-09 17:18:00,
2013-12-09 12:19:00,35.2,34.7,30.11,NW,312,0.0,6.0,98,0.00,,,0.00,Wunderground v.1.12,2013-12-09 17:19:00,
2013-12-09 12:20:00,35.2,34.7,30.11,WNW,300,1.0,6.0,98,0.00,,,0.00,Wunderground v.1.12,2013-12-09 17:20:00,
2013-12-09 12:22:00,35.2,34.7,30.11,WNW,298,1.0,3.0,98,0.00,,,0.00,Wunderground v.1.12,2013-12-09 17:22:00,
2013-12-09 12:24:00,35.2,34.7,30.11,NW,309,1.0,5.0,98,0.00,,,0.00,Wunderground v.1.12,2013-12-09 17:24:00,
2013-12-09 12:25:00,35.2,34.7,30.11,NW,306,3.0,5.0,98,0.00,,,0.00,Wunderground v.1.12,2013-12-09 17:25:00,
2013-12-09 12:27:00,35.2,34.7,30.11,WNW,300,2.0,4.0,98,0.00,,,0.00,Wunderground v.1.12,2013-12-09 17:27:00,
2013-12-09 12:29:00,35.2,34.7,30.11,NNE,32,2.0,4.0,98,0.00,,,0.00,Wunderground v.1.12,2013-12-09 17:29:00,
2013-12-09 12:30:00,35.2,34.7,30.11,NW,314,2.0,4.0,98,0.00,,,0.00,Wunderground v.1.12,2013-12-09 17:30:00,
2013-12-09 12:32:00,35.1,34.6,30.11,WNW,292,1.0,4.0,98,0.00,,,0.00,Wunderground v.1.12,2013-12-09 17:32:00,
2013-12-09 12:34:00,35.1,34.6,30.11,NNE,15,1.0,7.0,98,0.00,,,0.00,Wunderground v.1.12,2013-12-09 17:34:00,
2013-12-09 12:35:00,35.2,34.7,30.11,NNE,29,0.0,7.0,98,0.00,,,0.00,Wunderground v.1.12,2013-12-09 17:35:00,
2013-12-09 12:37:00,35.1,34.6,30.11,NNW,338,0.0,2.0,98,0.00,,,0.00,Wunderground v.1.12,2013-12-09 17:37:00,
2013-12-09 12:39:00,35.1,34.6,30.11,NE,53,0.0,4.0,98,0.00,,,0.00,Wunderground v.1.12,2013-12-09 17:39:00,
2013-12-09 12:40:00,35.1,34.6,30.11,NNW,335,2.0,4.0,98,0.00,,,0.00,Wunderground v.1.12,2013-12-09 17:40:00,
2013-12-09 12:42:00,35.1,34.6,30.11,NNE,12,2.0,5.0,98,0.00,,,0.00,Wunderground v.1.12,2013-12-09 17:42:00,
2013-12-09 12:44:00,35.1,34.6,30.11,North,5,0.0,5.0,98,0.00,,,0.00,Wunderground v.1.12,2013-12-09 17:44:00,
2013-12-09 12:45:00,35.1,34.6,30.12,NW,306,1.0,5.0,98,0.00,,,0.00,Wunderground v.1.12,2013-12-09 17:45:00,
2013-12-09 12:46:00,35.1,34.6,30.12,NW,307,1.0,2.0,98,0.00,,,0.00,Wunderground v.1.12,2013-12-09 17:46:00,
2013-12-09 12:47:00,35.1,34.6,30.12,West,268,1.0,2.0,98,0.00,,,0.00,Wunderground v.1.12,2013-12-09 17:47:00,
2013-12-09 12:50:00,35.1,34.6,30.12,NW,324,0.0,2.0,98,0.00,,,0.00,Wunderground v.1.12,2013-12-09 17:50:00,
2013-12-09 12:51:00,35.1,34.6,30.11,NNE,23,0.0,1.0,98,0.00,,,0.00,Wunderground v.1.12,2013-12-09 17:51:00,
2013-12-09 12:53:00,35.0,34.5,30.12,NW,308,4.0,4.0,98,0.00,,,0.00,Wunderground v.1.12,2013-12-09 17:53:00,
2013-12-09 12:55:00,35.0,34.5,30.12,WNW,296,0.0,4.0,98,0.00,,,0.00,Wunderground v.1.12,2013-12-09 17:55:00,
2013-12-09 12:56:00,35.0,34.5,30.11,WNW,296,0.0,1.0,98,0.00,,,0.00,Wunderground v.1.12,2013-12-09 17:56:00,
2013-12-09 12:58:00,35.0,34.5,30.12,NW,308,0.0,2.0,98,0.00,,,0.00,Wunderground v.1.12,2013-12-09 17:58:00,
2013-12-09 13:00:00,35.0,34.5,30.12,WNW,293,1.0,2.0,98,0.00,,,0.00,Wunderground v.1.12,2013-12-09 18:00:00,
2013-12-09 13:01:00,35.0,34.5,30.12,WNW,302,1.0,5.0,98,0.00,,,0.00,Wunderground v.1.12,2013-12-09 18:01:00,
2013-12-09 13:02:00,35.0,34.5,30.12,NNE,32,2.0,5.0,98,0.00,,,0.00,Wunderground v.1.12,2013-12-09 18:02:00,
2013-12-09 13:03:00,34.9,34.4,30.12,WNW,296,2.0,5.0,98,0.00,,,0.00,Wunderground v.1.12,2013-12-09 18:03:00,
2013-12-09 13:05:00,35.0,34.5,30.11,NW,310,3.0,5.0,98,0.00,,,0.00,Wunderground v.1.12,2013-12-09 18:05:00,
2013-12-09 13:06:00,34.9,34.4,30.12,NW,304,7.0,7.0,98,0.00,,,0.00,Wunderground v.1.12,2013-12-09 18:06:00,
2013-12-09 13:07:00,34.9,34.4,30.12,West,280,8.0,9.0,98,0.00,,,0.00,Wunderground v.1.12,2013-12-09 18:07:00,
2013-12-09 13:08:00,34.9,34.4,30.12,North,6,5.0,11.0,98,0.00,,,0.00,Wunderground v.1.12,2013-12-09 18:08:00,
2013-12-09 13:10:00,34.9,34.4,30.12,WNW,284,4.0,11.0,98,0.00,,,0.00,Wunderground v.1.12,2013-12-09 18:10:00,
2013-12-09 13:11:00,34.9,34.4,30.12,ENE,71,1.0,4.0,98,0.00,,,0.00,Wunderground v.1.12,2013-12-09 18:11:00,
2013-12-09 13:12:00,34.9,34.4,30.12,WNW,295,4.0,4.0,98,0.00,,,0.00,Wunderground v.1.12,2013-12-09 18:12:00,
2013-12-09 13:13:00,34.9,34.1,30.12,NW,310,2.0,4.0,97,0.00,,,0.00,Wunderground v.1.12,2013-12-09 18:13:00,
2013-12-09 13:15:00,34.9,34.1,30.11,North,352,6.0,10.0,97,0.00,,,0.00,Wunderground v.1.12,2013-12-09 18:15:00,
2013-12-09 13:16:00,34.9,34.1,30.11,NNW,342,5.0,10.0,97,0.00,,,0.00,Wunderground v.1.12,2013-12-09 18:16:00,
2013-12-09 13:17:00,34.9,34.1,30.11,NW,326,0.0,10.0,97,0.00,,,0.00,Wunderground v.1.12,2013-12-09 18:17:00,
2013-12-09 13:18:00,34.9,34.1,30.12,West,271,2.0,10.0,97,0.00,,,0.00,Wunderground v.1.12,2013-12-09 18:18:00,
2013-12-09 13:21:00,34.8,34.0,30.12,North,358,1.0,2.0,97,0.00,,,0.00,Wunderground v.1.12,2013-12-09 18:21:00,
2013-12-09 13:22:00,34.8,34.0,30.11,NW,322,0.0,5.0,97,0.00,,,0.00,Wunderground v.1.12,2013-12-09 18:22:00,
2013-12-09 13:23:00,34.7,33.9,30.11,WNW,291,2.0,6.0,97,0.00,,,0.00,Wunderground v.1.12,2013-12-09 18:23:00,
2013-12-09 13:26:00,34.6,33.8,30.11,North,6,3.0,6.0,97,0.00,,,0.00,Wunderground v.1.12,2013-12-09 18:26:00,
2013-12-09 13:27:00,34.6,33.8,30.11,West,276,3.0,8.0,97,0.00,,,0.00,Wunderground v.1.12,2013-12-09 18:27:00,
2013-12-09 13:29:00,34.6,33.8,30.11,WNW,290,6.0,10.0,97,0.00,,,0.00,Wunderground v.1.12,2013-12-09 18:29:00,
2013-12-09 13:31:00,34.6,33.6,30.12,NW,308,5.0,7.0,96,0.00,,,0.00,Wunderground v.1.12,2013-12-09 18:31:00,
2013-12-09 13:32:00,34.6,33.6,30.12,WNW,288,6.0,7.0,96,0.00,,,0.00,Wunderground v.1.12,2013-12-09 18:32:00,
2013-12-09 13:34:00,34.5,33.5,30.12,West,260,5.0,8.0,96,0.00,,,0.00,Wunderground v.1.12,2013-12-09 18:34:00,
2013-12-09 13:36:00,34.5,33.5,30.12,NW,304,4.0,5.0,96,0.00,,,0.00,Wunderground v.1.12,2013-12-09 18:36:00,
2013-12-09 13:37:00,34.5,33.5,30.12,NNE,29,0.0,5.0,96,0.00,,,0.00,Wunderground v.1.12,2013-12-09 18:37:00,
2013-12-09 13:38:00,34.5,33.5,30.12,NE,39,3.0,5.0,96,0.00,,,0.00,Wunderground v.1.12,2013-12-09 18:38:00,
2013-12-09 13:39:00,34.5,33.5,30.12,West,270,3.0,5.0,96,0.00,,,0.00,Wunderground v.1.12,2013-12-09 18:39:00,
2013-12-09 13:41:00,34.5,33.5,30.12,NW,312,2.0,3.0,96,0.00,,,0.00,Wunderground v.1.12,2013-12-09 18:41:00,
2013-12-09 13:42:00,34.4,33.4,30.12,West,268,3.0,4.0,96,0.00,,,0.00,Wunderground v.1.12,2013-12-09 18:42:00,
2013-12-09 13:43:00,34.4,33.4,30.12,NW,324,2.0,4.0,96,0.00,,,0.00,Wunderground v.1.12,2013-12-09 18:43:00,
2013-12-09 13:44:00,34.4,33.4,30.11,WNW,298,2.0,4.0,96,0.00,,,0.00,Wunderground v.1.12,2013-12-09 18:44:00,
2013-12-09 13:46:00,34.3,33.3,30.11,ESE,118,0.0,4.0,96,0.00,,,0.00,Wunderground v.1.12,2013-12-09 18:46:00,
2013-12-09 13:47:00,34.3,33.3,30.11,West,270,1.0,4.0,96,0.00,,,0.00,Wunderground v.1.12,2013-12-09 18:47:00,
2013-12-09 13:48:00,34.3,33.3,30.11,NE,53,3.0,4.0,96,0.00,,,0.00,Wunderground v.1.12,2013-12-09 18:48:00,
2013-12-09 13:49:00,34.2,33.2,30.11,West,267,6.0,6.0,96,0.00,,,0.00,Wunderground v.1.12,2013-12-09 18:49:00,
2013-12-09 13:51:00,34.2,33.2,30.11,NNW,330,1.0,2.0,96,0.00,,,0.00,Wunderground v.1.12,2013-12-09 18:51:00,
2013-12-09 13:52:00,34.1,33.1,30.11,NNE,25,1.0,2.0,96,0.00,,,0.00,Wunderground v.1.12,2013-12-09 18:52:00,
2013-12-09 13:53:00,34.1,33.1,30.11,WNW,293,2.0,6.0,96,0.00,,,0.00,Wunderground v.1.12,2013-12-09 18:53:00,
2013-12-09 13:54:00,34.1,33.1,30.11,WNW,282,1.0,7.0,96,0.00,,,0.00,Wunderground v.1.12,2013-12-09 18:54:00,
2013-12-09 13:56:00,34.0,33.0,30.11,WNW,285,1.0,4.0,96,0.00,,,0.00,Wunderground v.1.12,2013-12-09 18:56:00,
2013-12-09 13:57:00,34.0,33.0,30.11,NNW,342,3.0,4.0,96,0.00,,,0.00,Wunderground v.1.12,2013-12-09 18:57:00,
2013-12-09 13:58:00,34.0,33.0,30.11,NW,326,0.0,4.0,96,0.00,,,0.00,Wunderground v.1.12,2013-12-09 18:58:00,
2013-12-09 13:59:00,34.0,33.0,30.11,NW,304,0.0,4.0,96,0.00,,,0.00,Wunderground v.1.12,2013-12-09 18:59:00,
2013-12-09 14:01:00,34.0,33.0,30.11,NW,305,3.0,4.0,96,0.00,,,0.00,Wunderground v.1.12,2013-12-09 19:01:00,
2013-12-09 14:02:00,33.9,32.9,30.11,WSW,256,0.0,4.0,96,0.00,,,0.00,Wunderground v.1.12,2013-12-09 19:02:00,
2013-12-09 14:03:00,33.9,32.9,30.11,NNW,331,1.0,4.0,96,0.00,,,0.00,Wunderground v.1.12,2013-12-09 19:03:00,
2013-12-09 14:04:00,33.9,32.9,30.11,WNW,300,1.0,4.0,96,0.00,,,0.00,Wunderground v.1.12,2013-12-09 19:04:00,
2013-12-09 14:06:00,33.8,32.5,30.11,WNW,298,3.0,3.0,95,0.00,,,0.00,Wunderground v.1.12,2013-12-09 19:06:00,
2013-12-09 14:07:00,33.8,32.5,30.11,West,278,1.0,3.0,95,0.00,,,0.00,Wunderground v.1.12,2013-12-09 19:07:00,
2013-12-09 14:08:00,33.7,32.4,30.11,WNW,302,0.0,3.0,95,0.00,,,0.00,Wunderground v.1.12,2013-12-09 19:08:00,
2013-12-09 14:09:00,33.7,32.7,30.11,West,281,3.0,3.0,96,0.00,,,0.00,Wunderground v.1.12,2013-12-09 19:09:00,
2013-12-09 14:12:00,33.5,32.5,30.11,West,279,1.0,6.0,96,0.00,,,0.00,Wunderground v.1.12,2013-12-09 19:12:00,
2013-12-09 14:13:00,33.5,32.5,30.11,West,274,0.0,6.0,96,0.00,,,0.00,Wunderground v.1.12,2013-12-09 19:13:00,
2013-12-09 14:14:00,33.5,32.5,30.11,NW,315,0.0,6.0,96,0.00,,,0.00,Wunderground v.1.12,2013-12-09 19:14:00,
2013-12-09 14:17:00,33.4,32.4,30.11,WNW,300,6.0,8.0,96,0.00,,,0.00,Wunderground v.1.12,2013-12-09 19:17:00,
2013-12-09 14:18:00,33.4,32.4,30.11,NW,319,2.0,8.0,96,0.00,,,0.00,Wunderground v.1.12,2013-12-09 19:18:00,
2013-12-09 14:19:00,33.4,32.4,30.11,NNE,20,2.0,8.0,96,0.00,,,0.00,Wunderground v.1.12,2013-12-09 19:19:00,
2013-12-09 14:22:00,33.3,32.3,30.11,NE,41,2.0,5.0,96,0.00,,,0.00,Wunderground v.1.12,2013-12-09 19:22:00,
2013-12-09 14:23:00,33.3,32.3,30.11,NNW,332,6.0,6.0,96,0.00,,,0.00,Wunderground v.1.12,2013-12-09 19:23:00,
2013-12-09 14:24:00,33.3,32.3,30.11,NW,307,3.0,6.0,96,0.00,,,0.00,Wunderground v.1.12,2013-12-09 19:24:00,
2013-12-09 14:27:00,33.3,32.3,30.11,ENE,61,2.0,11.0,96,0.00,,,0.00,Wunderground v.1.12,2013-12-09 19:27:00,
2013-12-09 14:28:00,33.3,32.3,30.11,ENE,59,5.0,11.0,96,0.00,,,0.00,Wunderground v.1.12,2013-12-09 19:28:00,
2013-12-09 14:29:00,33.3,32.3,30.11,NW,308,3.0,11.0,96,0.00,,,0.00,Wunderground v.1.12,2013-12-09 19:29:00,
2013-12-09 14:32:00,33.3,32.0,30.11,WNW,300,1.0,4.0,95,0.00,,,0.01,Wunderground v.1.12,2013-12-09 19:32:00,
2013-12-09 14:33:00,33.3,32.0,30.11,WNW,297,3.0,6.0,95,0.00,,,0.01,Wunderground v.1.12,2013-12-09 19:33:00,
2013-12-09 14:34:00,33.3,32.0,30.11,WNW,290,2.0,6.0,95,0.00,,,0.01,Wunderground v.1.12,2013-12-09 19:34:00,
2013-12-09 14:37:00,33.3,32.0,30.11,WNW,295,3.0,5.0,95,0.00,,,0.01,Wunderground v.1.12,2013-12-09 19:37:00,
2013-12-09 14:39:00,33.3,32.0,30.11,NW,314,1.0,5.0,95,0.00,,,0.01,Wunderground v.1.12,2013-12-09 19:39:00,
2013-12-09 14:42:00,33.2,31.9,30.11,NW,304,1.0,5.0,95,0.06,,,0.02,Wunderground v.1.12,2013-12-09 19:42:00,
2013-12-09 14:44:00,33.2,31.9,30.11,West,280,2.0,5.0,95,0.06,,,0.02,Wunderground v.1.12,2013-12-09 19:44:00,
2013-12-09 14:45:00,33.2,31.7,30.11,NW,324,0.0,5.0,94,0.06,,,0.02,Wunderground v.1.12,2013-12-09 19:45:00,
2013-12-09 14:48:00,33.2,31.7,30.11,North,352,2.0,3.0,94,0.06,,,0.02,Wunderground v.1.12,2013-12-09 19:48:00,
2013-12-09 14:49:00,33.1,31.6,30.11,WNW,298,0.0,4.0,94,0.06,,,0.02,Wunderground v.1.12,2013-12-09 19:49:00,
2013-12-09 14:50:00,33.2,31.7,30.11,West,280,1.0,4.0,94,0.06,,,0.02,Wunderground v.1.12,2013-12-09 19:50:00,
2013-12-09 14:53:00,33.1,31.6,30.11,WNW,286,2.0,4.0,94,0.05,,,0.02,Wunderground v.1.12,2013-12-09 19:53:00,
2013-12-09 14:54:00,33.1,31.6,30.12,WNW,300,4.0,5.0,94,0.05,,,0.03,Wunderground v.1.12,2013-12-09 19:54:00,
2013-12-09 14:55:00,33.1,31.6,30.12,SW,230,2.0,6.0,94,0.05,,,0.03,Wunderground v.1.12,2013-12-09 19:55:00,
2013-12-09 14:58:00,33.1,31.6,30.12,NW,304,3.0,5.0,94,0.05,,,0.03,Wunderground v.1.12,2013-12-09 19:58:00,
2013-12-09 14:59:00,33.1,31.6,30.12,WNW,302,3.0,7.0,94,0.05,,,0.03,Wunderground v.1.12,2013-12-09 19:59:00,
2013-12-09 15:00:00,33.1,31.6,30.11,NW,306,0.0,7.0,94,0.05,,,0.03,Wunderground v.1.12,2013-12-09 20:00:00,
2013-12-09 15:03:00,33.1,31.6,30.11,WNW,286,1.0,2.0,94,0.05,,,0.03,Wunderground v.1.12,2013-12-09 20:03:00,
2013-12-09 15:04:00,33.2,31.7,30.11,North,11,0.0,2.0,94,0.05,,,0.03,Wunderground v.1.12,2013-12-09 20:04:00,
2013-12-09 15:05:00,33.2,31.7,30.11,NNE,15,0.0,2.0,94,0.05,,,0.03,Wunderground v.1.12,2013-12-09 20:05:00,
2013-12-09 15:08:00,33.2,31.7,30.11,West,264,3.0,3.0,94,0.04,,,0.04,Wunderground v.1.12,2013-12-09 20:08:00,
2013-12-09 15:09:00,33.2,31.7,30.11,WNW,300,3.0,10.0,94,0.04,,,0.04,Wunderground v.1.12,2013-12-09 20:09:00,
2013-12-09 15:10:00,33.1,31.6,30.11,NE,44,2.0,10.0,94,0.04,,,0.04,Wunderground v.1.12,2013-12-09 20:10:00,
2013-12-09 15:13:00,33.1,31.3,30.11,NE,34,1.0,5.0,93,0.04,,,0.04,Wunderground v.1.12,2013-12-09 20:13:00,
2013-12-09 15:14:00,33.2,31.4,30.11,North,11,0.0,5.0,93,0.04,,,0.04,Wunderground v.1.12,2013-12-09 20:14:00,
2013-12-09 15:15:00,33.2,31.4,30.11,NNW,348,5.0,7.0,93,0.04,,,0.04,Wunderground v.1.12,2013-12-09 20:15:00,
2013-12-09 15:16:00,33.2,31.4,30.11,NNE,17,2.0,5.0,93,0.04,,,0.04,Wunderground v.1.12,2013-12-09 20:16:00,
2013-12-09 15:18:00,33.2,31.4,30.11,NNE,25,1.0,5.0,93,0.04,,,0.04,Wunderground v.1.12,2013-12-09 20:18:00,
2013-12-09 15:19:00,33.2,31.4,30.11,NE,39,3.0,5.0,93,0.04,,,0.04,Wunderground v.1.12,2013-12-09 20:19:00,
2013-12-09 15:20:00,33.2,31.4,30.11,NE,34,4.0,5.0,93,0.04,,,0.04,Wunderground v.1.12,2013-12-09 20:20:00,
2013-12-09 15:21:00,33.2,31.4,30.11,WNW,294,5.0,6.0,93,0.04,,,0.04,Wunderground v.1.12,2013-12-09 20:21:00,
2013-12-09 15:23:00,33.1,31.3,30.11,East,87,0.0,6.0,93,0.04,,,0.04,Wunderground v.1.12,2013-12-09 20:23:00,
2013-12-09 15:24:00,33.2,31.4,30.11,NNW,345,0.0,6.0,93,0.00,,,0.04,Wunderground v.1.12,2013-12-09 20:24:00,
2013-12-09 15:25:00,33.2,31.4,30.12,West,274,0.0,2.0,93,0.00,,,0.05,Wunderground v.1.12,2013-12-09 20:25:00,
2013-12-09 15:26:00,33.2,31.4,30.12,NE,43,1.0,2.0,93,0.00,,,0.05,Wunderground v.1.12,2013-12-09 20:26:00,
2013-12-09 15:28:00,33.2,31.4,30.12,West,263,0.0,6.0,93,0.00,,,0.05,Wunderground v.1.12,2013-12-09 20:28:00,
2013-12-09 15:30:00,33.2,31.4,30.12,North,5,2.0,6.0,93,0.00,,,0.05,Wunderground v.1.12,2013-12-09 20:30:00,
2013-12-09 15:31:00,33.2,31.4,30.11,West,262,1.0,3.0,93,0.00,,,0.05,Wunderground v.1.12,2013-12-09 20:31:00,
2013-12-09 15:33:00,33.1,31.3,30.12,NNE,18,4.0,6.0,93,0.00,,,0.05,Wunderground v.1.12,2013-12-09 20:33:00,
2013-12-09 15:35:00,33.1,31.3,30.12,NNE,25,4.0,6.0,93,0.00,,,0.05,Wunderground v.1.12,2013-12-09 20:35:00,
2013-12-09 15:36:00,33.1,31.3,30.12,ENE,61,5.0,5.0,93,0.00,,,0.05,Wunderground v.1.12,2013-12-09 20:36:00,
2013-12-09 15:38:00,33.0,31.2,30.12,NNE,15,1.0,5.0,93,0.00,,,0.05,Wunderground v.1.12,2013-12-09 20:38:00,
2013-12-09 15:40:00,33.0,31.2,30.12,NE,44,4.0,5.0,93,0.00,,,0.05,Wunderground v.1.12,2013-12-09 20:40:00,
2013-12-09 15:41:00,33.0,31.2,30.12,NW,321,3.0,4.0,93,0.00,,,0.05,Wunderground v.1.12,2013-12-09 20:41:00,
2013-12-09 15:43:00,32.9,31.1,30.12,NNE,13,1.0,4.0,93,0.00,,,0.05,Wunderground v.1.12,2013-12-09 20:43:00,
2013-12-09 15:45:00,32.9,31.1,30.12,North,356,4.0,6.0,93,0.00,,,0.05,Wunderground v.1.12,2013-12-09 20:45:00,
2013-12-09 15:46:00,32.8,31.0,30.12,WNW,295,0.0,5.0,93,0.00,,,0.05,Wunderground v.1.12,2013-12-09 20:46:00,
2013-12-09 15:47:00,32.8,31.0,30.12,WNW,298,3.0,7.0,93,0.00,,,0.05,Wunderground v.1.12,2013-12-09 20:47:00,
2013-12-09 15:48:00,32.8,30.7,30.12,NW,315,0.0,7.0,92,0.00,,,0.05,Wunderground v.1.12,2013-12-09 20:48:00,
2013-12-09 15:50:00,32.8,30.7,30.12,NW,310,6.0,7.0,92,0.00,,,0.06,Wunderground v.1.12,2013-12-09 20:50:00,
2013-12-09 15:51:00,32.8,30.7,30.12,NNW,328,5.0,6.0,92,0.00,,,0.06,Wunderground v.1.12,2013-12-09 20:51:00,
2013-12-09 15:52:00,32.7,30.6,30.12,NW,318,1.0,6.0,92,0.00,,,0.06,Wunderground v.1.12,2013-12-09 20:52:00,
2013-12-09 15:54:00,32.7,30.6,30.12,NE,34,1.0,6.0,92,0.00,,,0.06,Wunderground v.1.12,2013-12-09 20:54:00,
2013-12-09 15:55:00,32.7,30.9,30.12,NW,312,1.0,1.0,93,0.00,,,0.06,Wunderground v.1.12,2013-12-09 20:55:00,
2013-12-09 15:56:00,32.7,30.9,30.12,NW,307,0.0,1.0,93,0.00,,,0.06,Wunderground v.1.12,2013-12-09 20:56:00,
2013-12-09 15:57:00,32.7,30.9,30.12,NNE,15,2.0,4.0,93,0.00,,,0.06,Wunderground v.1.12,2013-12-09 20:57:00,
2013-12-09 15:59:00,32.7,30.9,30.12,ENE,57,3.0,4.0,93,0.00,,,0.06,Wunderground v.1.12,2013-12-09 20:59:00,
2013-12-09 16:00:00,32.6,30.5,30.12,WNW,287,0.0,1.0,92,0.00,,,0.06,Wunderground v.1.12,2013-12-09 21:00:00,
2013-12-09 16:01:00,32.6,30.5,30.12,North,6,3.0,3.0,92,0.00,,,0.06,Wunderground v.1.12,2013-12-09 21:01:00,
2013-12-09 16:02:00,32.6,30.5,30.12,WNW,301,2.0,5.0,92,0.00,,,0.06,Wunderground v.1.12,2013-12-09 21:02:00,
2013-12-09 16:04:00,32.5,30.2,30.12,NW,316,2.0,9.0,91,0.00,,,0.06,Wunderground v.1.12,2013-12-09 21:04:00,
2013-12-09 16:06:00,32.5,29.9,30.12,West,276,2.0,3.0,90,0.00,,,0.06,Wunderground v.1.12,2013-12-09 21:06:00,
2013-12-09 16:07:00,32.5,29.9,30.12,NE,34,3.0,7.0,90,0.00,,,0.06,Wunderground v.1.12,2013-12-09 21:07:00,
2013-12-09 16:09:00,32.4,29.8,30.12,North,352,4.0,9.0,90,0.00,,,0.06,Wunderground v.1.12,2013-12-09 21:09:00,
2013-12-09 16:11:00,32.4,29.8,30.12,NW,312,2.0,3.0,90,0.00,,,0.06,Wunderground v.1.12,2013-12-09 21:11:00,
2013-12-09 16:12:00,32.3,29.7,30.12,North,356,4.0,5.0,90,0.00,,,0.06,Wunderground v.1.12,2013-12-09 21:12:00,
2013-12-09 16:14:00,32.3,29.7,30.12,NW,316,2.0,6.0,90,0.00,,,0.06,Wunderground v.1.12,2013-12-09 21:14:00,
2013-12-09 16:16:00,32.2,29.6,30.13,West,268,0.0,3.0,90,0.00,,,0.06,Wunderground v.1.12,2013-12-09 21:16:00,
2013-12-09 16:17:00,32.2,29.6,30.13,North,356,2.0,3.0,90,0.00,,,0.06,Wunderground v.1.12,2013-12-09 21:17:00,
2013-12-09 16:19:00,32.2,29.6,30.12,WNW,285,1.0,5.0,90,0.00,,,0.06,Wunderground v.1.12,2013-12-09 21:19:00,
2013-12-09 16:21:00,32.2,29.6,30.12,West,259,0.0,2.0,90,0.00,,,0.06,Wunderground v.1.12,2013-12-09 21:21:00,
2013-12-09 16:22:00,32.1,29.5,30.12,West,263,1.0,2.0,90,0.00,,,0.06,Wunderground v.1.12,2013-12-09 21:22:00,
2013-12-09 16:23:00,32.1,29.8,30.12,WNW,290,0.0,2.0,91,0.00,,,0.06,Wunderground v.1.12,2013-12-09 21:23:00,
2013-12-09 16:24:00,32.1,29.8,30.12,WNW,295,2.0,2.0,91,0.00,,,0.06,Wunderground v.1.12,2013-12-09 21:24:00,
2013-12-09 16:26:00,32.1,29.8,30.12,West,273,4.0,4.0,91,0.00,,,0.06,Wunderground v.1.12,2013-12-09 21:26:00,
2013-12-09 16:27:00,32.0,29.7,30.12,WNW,297,4.0,6.0,91,0.00,,,0.06,Wunderground v.1.12,2013-12-09 21:27:00,
2013-12-09 16:28:00,32.0,29.7,30.13,WNW,298,2.0,6.0,91,0.00,,,0.06,Wunderground v.1.12,2013-12-09 21:28:00,
2013-12-09 16:30:00,32.0,29.4,30.12,SW,232,1.0,6.0,90,0.00,,,0.06,Wunderground v.1.12,2013-12-09 21:30:00,
2013-12-09 16:31:00,32.1,29.5,30.13,NNE,15,5.0,9.0,90,0.00,,,0.06,Wunderground v.1.12,2013-12-09 21:31:00,
2013-12-09 16:32:00,32.0,29.4,30.13,ENE,60,1.0,9.0,90,0.00,,,0.06,Wunderground v.1.12,2013-12-09 21:32:00,
2013-12-09 16:33:00,32.0,29.4,30.13,ENE,57,3.0,9.0,90,0.00,,,0.06,Wunderground v.1.12,2013-12-09 21:33:00,
2013-12-09 16:34:00,32.1,29.5,30.13,WNW,295,3.0,9.0,90,0.00,,,0.06,Wunderground v.1.12,2013-12-09 21:34:00,
2013-12-09 16:35:00,32.1,29.5,30.13,West,272,2.0,11.0,90,0.00,,,0.06,Wunderground v.1.12,2013-12-09 21:35:00,
2013-12-09 16:36:00,32.0,29.4,30.13,North,352,0.0,4.0,90,0.00,,,0.06,Wunderground v.1.12,2013-12-09 21:36:00,
2013-12-09 16:37:00,32.1,29.5,30.13,NNW,338,2.0,7.0,90,0.00,,,0.06,Wunderground v.1.12,2013-12-09 21:37:00,
2013-12-09 16:38:00,32.0,29.4,30.13,ENE,63,2.0,7.0,90,0.00,,,0.06,Wunderground v.1.12,2013-12-09 21:38:00,
2013-12-09 16:39:00,32.0,29.4,30.13,WNW,298,7.0,7.0,90,0.00,,,0.06,Wunderground v.1.12,2013-12-09 21:39:00,
2013-12-09 16:40:00,32.0,29.1,30.13,WNW,298,4.0,7.0,89,0.00,,,0.06,Wunderground v.1.12,2013-12-09 21:40:00,
2013-12-09 16:41:00,32.0,29.1,30.13,NW,311,1.0,6.0,89,0.00,,,0.06,Wunderground v.1.12,2013-12-09 21:41:00,
2013-12-09 16:42:00,32.0,29.1,30.13,ENE,71,2.0,6.0,89,0.00,,,0.06,Wunderground v.1.12,2013-12-09 21:42:00,
2013-12-09 16:43:00,32.0,29.1,30.14,NW,316,3.0,6.0,89,0.00,,,0.06,Wunderground v.1.12,2013-12-09 21:43:00,
2013-12-09 16:44:00,32.0,29.1,30.14,NNE,25,6.0,7.0,89,0.00,,,0.06,Wunderground v.1.12,2013-12-09 21:44:00,
2013-12-09 16:45:00,31.9,29.0,30.14,NNE,25,2.0,7.0,89,0.00,,,0.07,Wunderground v.1.12,2013-12-09 21:45:00,
2013-12-09 16:46:00,32.0,29.1,30.14,West,277,2.0,6.0,89,0.00,,,0.07,Wunderground v.1.12,2013-12-09 21:46:00,
2013-12-09 16:47:00,32.0,29.1,30.14,NW,304,2.0,6.0,89,0.00,,,0.07,Wunderground v.1.12,2013-12-09 21:47:00,
2013-12-09 16:48:00,31.9,29.0,30.14,ESE,108,2.0,8.0,89,0.00,,,0.07,Wunderground v.1.12,2013-12-09 21:48:00,
2013-12-09 16:49:00,31.9,29.0,30.14,North,352,1.0,8.0,89,0.00,,,0.07,Wunderground v.1.12,2013-12-09 21:49:00,
2013-12-09 16:50:00,31.9,29.0,30.14,NW,309,3.0,8.0,89,0.00,,,0.07,Wunderground v.1.12,2013-12-09 21:50:00,
2013-12-09 16:51:00,31.9,29.0,30.14,NW,314,7.0,8.0,89,0.00,,,0.07,Wunderground v.1.12,2013-12-09 21:51:00,
2013-12-09 16:52:00,31.9,29.0,30.14,WNW,287,0.0,8.0,89,0.00,,,0.07,Wunderground v.1.12,2013-12-09 21:52:00,
2013-12-09 16:53:00,31.9,29.0,30.14,WNW,286,0.0,8.0,89,0.00,,,0.07,Wunderground v.1.12,2013-12-09 21:53:00,
2013-12-09 16:54:00,31.9,29.0,30.14,East,91,6.0,8.0,89,0.00,,,0.07,Wunderground v.1.12,2013-12-09 21:54:00,
2013-12-09 16:55:00,31.9,29.0,30.14,NW,309,3.0,8.0,89,0.00,,,0.07,Wunderground v.1.12,2013-12-09 21:55:00,
2013-12-09 16:56:00,31.9,29.0,30.14,WNW,300,0.0,5.0,89,0.00,,,0.07,Wunderground v.1.12,2013-12-09 21:56:00,
2013-12-09 16:57:00,31.9,29.0,30.14,NNW,347,5.0,5.0,89,0.00,,,0.07,Wunderground v.1.12,2013-12-09 21:57:00,
2013-12-09 16:58:00,31.9,29.0,30.14,NW,326,1.0,5.0,89,0.00,,,0.07,Wunderground v.1.12,2013-12-09 21:58:00,
2013-12-09 16:59:00,31.9,29.0,30.14,NW,319,1.0,5.0,89,0.00,,,0.07,Wunderground v.1.12,2013-12-09 21:59:00,
2013-12-09 17:00:00,31.8,28.9,30.14,WNW,300,1.0,5.0,89,0.00,,,0.07,Wunderground v.1.12,2013-12-09 22:00:00,
2013-12-09 17:01:00,31.9,29.0,30.14,NNW,332,0.0,5.0,89,0.00,,,0.07,Wunderground v.1.12,2013-12-09 22:01:00,
2013-12-09 17:02:00,31.9,29.0,30.14,NW,309,2.0,5.0,89,0.00,,,0.07,Wunderground v.1.12,2013-12-09 22:02:00,
2013-12-09 17:03:00,31.8,28.9,30.14,NW,314,0.0,5.0,89,0.00,,,0.07,Wunderground v.1.12,2013-12-09 22:03:00,
2013-12-09 17:04:00,31.8,28.9,30.14,NE,39,4.0,5.0,89,0.00,,,0.07,Wunderground v.1.12,2013-12-09 22:04:00,
2013-12-09 17:05:00,31.8,28.9,30.14,WSW,252,0.0,5.0,89,0.00,,,0.07,Wunderground v.1.12,2013-12-09 22:05:00,
2013-12-09 17:07:00,31.8,28.9,30.14,WNW,290,2.0,10.0,89,0.00,,,0.07,Wunderground v.1.12,2013-12-09 22:07:00,
2013-12-09 17:08:00,31.8,28.7,30.14,West,280,3.0,10.0,88,0.00,,,0.07,Wunderground v.1.12,2013-12-09 22:08:00,
2013-12-09 17:09:00,31.8,28.7,30.14,NNW,338,2.0,10.0,88,0.00,,,0.07,Wunderground v.1.12,2013-12-09 22:09:00,
2013-12-09 17:10:00,31.8,28.7,30.14,NNW,348,6.0,10.0,88,0.00,,,0.07,Wunderground v.1.12,2013-12-09 22:10:00,
2013-12-09 17:12:00,31.8,28.7,30.14,NNE,27,1.0,12.0,88,0.00,,,0.07,Wunderground v.1.12,2013-12-09 22:12:00,
2013-12-09 17:13:00,31.8,28.7,30.14,North,359,3.0,12.0,88,0.00,,,0.07,Wunderground v.1.12,2013-12-09 22:13:00,
2013-12-09 17:14:00,31.8,28.7,30.14,North,11,2.0,12.0,88,0.00,,,0.07,Wunderground v.1.12,2013-12-09 22:14:00,
2013-12-09 17:15:00,31.8,28.7,30.14,WNW,301,2.0,12.0,88,0.00,,,0.07,Wunderground v.1.12,2013-12-09 22:15:00,
2013-12-09 17:17:00,31.8,28.4,30.14,WNW,295,1.0,7.0,87,0.00,,,0.07,Wunderground v.1.12,2013-12-09 22:17:00,
2013-12-09 17:18:00,31.8,28.4,30.14,NNE,13,2.0,7.0,87,0.00,,,0.07,Wunderground v.1.12,2013-12-09 22:18:00,
2013-12-09 17:20:00,31.8,28.4,30.14,WNW,288,4.0,11.0,87,0.00,,,0.07,Wunderground v.1.12,2013-12-09 22:20:00,
2013-12-09 17:22:00,31.8,28.4,30.14,North,11,8.0,11.0,87,0.00,,,0.07,Wunderground v.1.12,2013-12-09 22:22:00,
2013-12-09 17:23:00,31.8,28.4,30.14,NNW,342,9.0,11.0,87,0.00,,,0.07,Wunderground v.1.12,2013-12-09 22:23:00,
2013-12-09 17:24:00,31.8,28.4,30.14,West,260,1.0,11.0,87,0.00,,,0.07,Wunderground v.1.12,2013-12-09 22:24:00,
2013-12-09 17:25:00,31.8,28.4,30.14,NNW,345,7.0,11.0,87,0.00,,,0.07,Wunderground v.1.12,2013-12-09 22:25:00,
2013-12-09 17:26:00,31.8,28.4,30.14,NE,51,2.0,4.0,87,0.00,,,0.07,Wunderground v.1.12,2013-12-09 22:26:00,
2013-12-09 17:28:00,31.7,28.6,30.15,NW,314,2.0,4.0,88,0.00,,,0.07,Wunderground v.1.12,2013-12-09 22:28:00,
2013-12-09 17:29:00,31.7,28.6,30.15,NNE,18,0.0,6.0,88,0.00,,,0.07,Wunderground v.1.12,2013-12-09 22:29:00,
2013-12-09 17:30:00,31.7,28.6,30.14,NW,322,2.0,8.0,88,0.00,,,0.07,Wunderground v.1.12,2013-12-09 22:30:00,
2013-12-09 17:31:00,31.7,28.6,30.15,NNW,338,2.0,3.0,88,0.00,,,0.07,Wunderground v.1.12,2013-12-09 22:31:00,
2013-12-09 17:33:00,31.6,28.5,30.15,NNE,29,3.0,12.0,88,0.00,,,0.07,Wunderground v.1.12,2013-12-09 22:33:00,
2013-12-09 17:35:00,31.6,28.5,30.15,North,1,5.0,12.0,88,0.00,,,0.07,Wunderground v.1.12,2013-12-09 22:35:00,
2013-12-09 17:36:00,31.6,28.5,30.14,ESE,102,1.0,3.0,88,0.00,,,0.07,Wunderground v.1.12,2013-12-09 22:36:00,
2013-12-09 17:37:00,31.6,28.5,30.14,NNE,22,2.0,6.0,88,0.00,,,0.07,Wunderground v.1.12,2013-12-09 22:37:00,
2013-12-09 17:38:00,31.6,28.5,30.15,West,270,1.0,6.0,88,0.00,,,0.07,Wunderground v.1.12,2013-12-09 22:38:00,
2013-12-09 17:40:00,31.6,28.5,30.15,NE,46,2.0,7.0,88,0.00,,,0.07,Wunderground v.1.12,2013-12-09 22:40:00,
2013-12-09 17:41:00,31.5,28.4,30.14,NNE,15,1.0,3.0,88,0.00,,,0.07,Wunderground v.1.12,2013-12-09 22:41:00,
2013-12-09 17:42:00,31.5,28.6,30.15,NE,39,1.0,3.0,89,0.00,,,0.07,Wunderground v.1.12,2013-12-09 22:42:00,
2013-12-09 17:43:00,31.5,28.6,30.15,WNW,295,2.0,3.0,89,0.00,,,0.07,Wunderground v.1.12,2013-12-09 22:43:00,
2013-12-09 17:45:00,31.5,28.6,30.15,North,3,4.0,6.0,89,0.00,,,0.07,Wunderground v.1.12,2013-12-09 22:45:00,
2013-12-09 17:46:00,31.5,28.6,30.15,North,350,3.0,6.0,89,0.00,,,0.07,Wunderground v.1.12,2013-12-09 22:46:00,
2013-12-09 17:47:00,31.4,28.5,30.15,NW,323,0.0,11.0,89,0.00,,,0.07,Wunderground v.1.12,2013-12-09 22:47:00,
2013-12-09 17:48:00,31.5,28.6,30.15,West,277,2.0,11.0,89,0.00,,,0.07,Wunderground v.1.12,2013-12-09 22:48:00,
2013-12-09 17:50:00,31.4,28.5,30.15,NW,310,4.0,11.0,89,0.00,,,0.07,Wunderground v.1.12,2013-12-09 22:50:00,
2013-12-09 17:51:00,31.4,28.5,30.15,North,356,9.0,11.0,89,0.00,,,0.07,Wunderground v.1.12,2013-12-09 22:51:00,
2013-12-09 17:52:00,31.4,28.5,30.15,North,349,1.0,11.0,89,0.00,,,0.07,Wunderground v.1.12,2013-12-09 22:52:00,
2013-12-09 17:53:00,31.4,28.5,30.15,NE,39,5.0,11.0,89,0.00,,,0.07,Wunderground v.1.12,2013-12-09 22:53:00,
2013-12-09 17:55:00,31.4,28.5,30.15,NNE,25,4.0,11.0,89,0.00,,,0.07,Wunderground v.1.12,2013-12-09 22:55:00,
2013-12-09 17:56:00,31.4,28.8,30.15,ENE,57,4.0,7.0,90,0.00,,,0.07,Wunderground v.1.12,2013-12-09 22:56:00,
2013-12-09 17:57:00,31.4,28.8,30.15,NW,307,2.0,7.0,90,0.00,,,0.07,Wunderground v.1.12,2013-12-09 22:57:00,
2013-12-09 17:58:00,31.4,28.8,30.16,NNE,30,3.0,7.0,90,0.00,,,0.07,Wunderground v.1.12,2013-12-09 22:58:00,
2013-12-09 18:00:00,31.3,28.7,30.15,North,352,2.0,4.0,90,0.00,,,0.07,Wunderground v.1.12,2013-12-09 23:00:00,
2013-12-09 18:01:00,31.3,28.7,30.15,ENE,71,0.0,4.0,90,0.00,,,0.07,Wunderground v.1.12,2013-12-09 23:01:00,
2013-12-09 18:02:00,31.3,28.7,30.15,WNW,293,1.0,6.0,90,0.00,,,0.07,Wunderground v.1.12,2013-12-09 23:02:00,
2013-12-09 18:03:00,31.3,28.7,30.15,NE,44,7.0,7.0,90,0.00,,,0.07,Wunderground v.1.12,2013-12-09 23:03:00,
2013-12-09 18:06:00,31.2,28.6,30.16,SE,124,2.0,4.0,90,0.00,,,0.07,Wunderground v.1.12,2013-12-09 23:06:00,
2013-12-09 18:07:00,31.2,28.6,30.16,NNW,338,3.0,4.0,90,0.00,,,0.07,Wunderground v.1.12,2013-12-09 23:07:00,
2013-12-09 18:08:00,31.2,28.6,30.16,NW,304,1.0,4.0,90,0.00,,,0.07,Wunderground v.1.12,2013-12-09 23:08:00,
2013-12-09 18:11:00,31.1,28.5,30.16,NE,46,3.0,6.0,90,0.00,,,0.07,Wunderground v.1.12,2013-12-09 23:11:00,
2013-12-09 18:12:00,31.1,28.5,30.16,NW,319,2.0,6.0,90,0.00,,,0.07,Wunderground v.1.12,2013-12-09 23:12:00,
2013-12-09 18:13:00,31.1,28.5,30.16,NNW,338,1.0,6.0,90,0.00,,,0.07,Wunderground v.1.12,2013-12-09 23:13:00,
2013-12-09 18:16:00,31.0,28.7,30.16,NNW,330,0.0,3.0,91,0.00,,,0.07,Wunderground v.1.12,2013-12-09 23:16:00,
2013-12-09 18:17:00,31.0,28.7,30.16,NE,34,3.0,5.0,91,0.00,,,0.07,Wunderground v.1.12,2013-12-09 23:17:00,
2013-12-09 18:18:00,31.0,28.7,30.16,ENE,57,1.0,5.0,91,0.00,,,0.07,Wunderground v.1.12,2013-12-09 23:18:00,
2013-12-09 18:21:00,31.0,28.7,30.16,NNW,342,4.0,4.0,91,0.00,,,0.07,Wunderground v.1.12,2013-12-09 23:21:00,
2013-12-09 18:22:00,31.0,28.7,30.16,North,9,1.0,4.0,91,0.00,,,0.07,Wunderground v.1.12,2013-12-09 23:22:00,
2013-12-09 18:23:00,31.0,28.7,30.16,NNE,13,2.0,4.0,91,0.00,,,0.07,Wunderground v.1.12,2013-12-09 23:23:00,
2013-12-09 18:26:00,30.9,28.6,30.16,ENE,77,0.0,3.0,91,0.00,,,0.07,Wunderground v.1.12,2013-12-09 23:26:00,
2013-12-09 18:27:00,30.9,28.6,30.16,North,6,0.0,3.0,91,0.00,,,0.07,Wunderground v.1.12,2013-12-09 23:27:00,
2013-12-09 18:28:00,30.9,28.6,30.16,West,276,3.0,3.0,91,0.00,,,0.07,Wunderground v.1.12,2013-12-09 23:28:00,
2013-12-09 18:29:00,30.9,28.6,30.16,NNW,340,3.0,5.0,91,0.00,,,0.07,Wunderground v.1.12,2013-12-09 23:29:00,
2013-12-09 18:31:00,30.8,28.5,30.16,West,270,3.0,3.0,91,0.00,,,0.07,Wunderground v.1.12,2013-12-09 23:31:00,
2013-12-09 18:33:00,30.9,28.3,30.16,SW,229,1.0,5.0,90,0.00,,,0.07,Wunderground v.1.12,2013-12-09 23:33:00,
2013-12-09 18:34:00,30.9,28.3,30.16,WNW,300,2.0,5.0,90,0.00,,,0.07,Wunderground v.1.12,2013-12-09 23:34:00,
2013-12-09 18:37:00,30.9,28.3,30.16,NNW,342,5.0,6.0,90,0.00,,,0.07,Wunderground v.1.12,2013-12-09 23:37:00,
2013-12-09 18:38:00,30.9,28.3,30.16,WNW,291,2.0,6.0,90,0.00,,,0.07,Wunderground v.1.12,2013-12-09 23:38:00,
2013-12-09 18:39:00,30.9,28.3,30.16,North,4,3.0,8.0,90,0.00,,,0.07,Wunderground v.1.12,2013-12-09 23:39:00,
2013-12-09 18:42:00,30.9,28.0,30.16,NE,43,0.0,8.0,89,0.00,,,0.07,Wunderground v.1.12,2013-12-09 23:42:00,
2013-12-09 18:43:00,30.9,28.0,30.16,WNW,300,3.0,8.0,89,0.00,,,0.07,Wunderground v.1.12,2013-12-09 23:43:00,
2013-12-09 18:44:00,31.0,28.1,30.16,NNE,22,2.0,8.0,89,0.00,,,0.07,Wunderground v.1.12,2013-12-09 23:44:00,
2013-12-09 18:47:00,30.9,28.0,30.16,North,351,3.0,10.0,89,0.00,,,0.07,Wunderground v.1.12,2013-12-09 23:47:00,
2013-12-09 18:48:00,30.9,28.0,30.16,WNW,295,4.0,10.0,89,0.00,,,0.07,Wunderground v.1.12,2013-12-09 23:48:00,
2013-12-09 18:49:00,30.9,28.0,30.16,WNW,297,4.0,10.0,89,0.00,,,0.07,Wunderground v.1.12,2013-12-09 23:49:00,
2013-12-09 18:52:00,30.9,28.0,30.16,North,356,1.0,3.0,89,0.00,,,0.07,Wunderground v.1.12,2013-12-09 23:52:00,
2013-12-09 18:54:00,30.9,28.0,30.16,WNW,292,7.0,7.0,89,0.00,,,0.07,Wunderground v.1.12,2013-12-09 23:54:00,
2013-12-09 18:57:00,30.9,28.0,30.17,NW,322,2.0,6.0,89,0.00,,,0.07,Wunderground v.1.12,2013-12-09 23:57:00,
2013-12-09 18:59:00,30.9,28.0,30.16,SSW,203,1.0,6.0,89,0.00,,,0.07,Wunderground v.1.12,2013-12-09 23:59:00,
2013-12-09 19:00:00,30.9,28.0,30.17,NW,318,6.0,8.0,89,0.00,,,0.07,Wunderground v.1.12,2013-12-10 00:00:00,
2013-12-09 19:02:00,30.9,28.0,30.16,NW,307,2.0,6.0,89,0.00,,,0.07,Wunderground v.1.12,2013-12-10 00:02:00,
2013-12-09 19:04:00,30.8,27.9,30.16,NW,306,2.0,6.0,89,0.00,,,0.07,Wunderground v.1.12,2013-12-10 00:04:00,
2013-12-09 19:05:00,30.8,27.9,30.16,WNW,300,2.0,6.0,89,0.00,,,0.07,Wunderground v.1.12,2013-12-10 00:05:00,
2013-12-09 19:07:00,30.8,27.9,30.16,West,270,8.0,14.0,89,0.00,,,0.07,Wunderground v.1.12,2013-12-10 00:07:00,
2013-12-09 19:09:00,30.8,27.7,30.16,West,271,4.0,14.0,88,0.00,,,0.07,Wunderground v.1.12,2013-12-10 00:09:00,
2013-12-09 19:10:00,30.8,27.7,30.16,NNW,336,1.0,14.0,88,0.00,,,0.07,Wunderground v.1.12,2013-12-10 00:10:00,
2013-12-09 19:12:00,30.7,27.6,30.16,NNW,342,3.0,7.0,88,0.00,,,0.07,Wunderground v.1.12,2013-12-10 00:12:00,
2013-12-09 19:14:00,30.7,27.6,30.16,NE,40,3.0,9.0,88,0.00,,,0.07,Wunderground v.1.12,2013-12-10 00:14:00,
2013-12-09 19:15:00,30.7,27.6,30.16,North,356,6.0,9.0,88,0.00,,,0.07,Wunderground v.1.12,2013-12-10 00:15:00,
2013-12-09 19:17:00,30.7,27.6,30.16,NW,309,5.0,7.0,88,0.00,,,0.07,Wunderground v.1.12,2013-12-10 00:17:00,
2013-12-09 19:19:00,30.7,27.6,30.16,WNW,291,2.0,7.0,88,0.00,,,0.07,Wunderground v.1.12,2013-12-10 00:19:00,
2013-12-09 19:20:00,30.6,27.5,30.16,WNW,297,5.0,11.0,88,0.00,,,0.07,Wunderground v.1.12,2013-12-10 00:20:00,
2013-12-09 19:22:00,30.6,27.7,30.16,NW,310,3.0,5.0,89,0.00,,,0.07,Wunderground v.1.12,2013-12-10 00:22:00,
2013-12-09 19:24:00,30.6,27.5,30.16,North,352,2.0,6.0,88,0.00,,,0.07,Wunderground v.1.12,2013-12-10 00:24:00,
2013-12-09 19:25:00,30.6,27.5,30.16,SSW,203,1.0,6.0,88,0.00,,,0.07,Wunderground v.1.12,2013-12-10 00:25:00,
2013-12-09 19:26:00,30.5,27.4,30.16,NNW,338,6.0,8.0,88,0.00,,,0.07,Wunderground v.1.12,2013-12-10 00:26:00,
2013-12-09 19:28:00,30.5,27.4,30.16,NW,316,1.0,8.0,88,0.00,,,0.07,Wunderground v.1.12,2013-12-10 00:28:00,
2013-12-09 19:29:00,30.5,27.4,30.16,WNW,294,4.0,8.0,88,0.00,,,0.07,Wunderground v.1.12,2013-12-10 00:29:00,
2013-12-09 19:30:00,30.5,27.1,30.16,WNW,285,4.0,9.0,87,0.00,,,0.07,Wunderground v.1.12,2013-12-10 00:30:00,
2013-12-09 19:31:00,30.5,27.1,30.16,WNW,291,7.0,12.0,87,0.00,,,0.07,Wunderground v.1.12,2013-12-10 00:31:00,
2013-12-09 19:33:00,30.4,27.0,30.16,WNW,298,4.0,7.0,87,0.00,,,0.07,Wunderground v.1.12,2013-12-10 00:33:00,
2013-12-09 19:34:00,30.4,27.0,30.16,WNW,294,1.0,7.0,87,0.00,,,0.07,Wunderground v.1.12,2013-12-10 00:34:00,
2013-12-09 19:35:00,30.4,27.0,30.16,North,352,2.0,7.0,87,0.00,,,0.07,Wunderground v.1.12,2013-12-10 00:35:00,
2013-12-09 19:36:00,30.4,27.0,30.16,West,260,3.0,7.0,87,0.00,,,0.07,Wunderground v.1.12,2013-12-10 00:36:00,
2013-12-09 19:38:00,30.4,27.0,30.16,SW,222,1.0,4.0,87,0.00,,,0.07,Wunderground v.1.12,2013-12-10 00:38:00,
2013-12-09 19:39:00,30.4,27.0,30.16,NW,308,6.0,6.0,87,0.00,,,0.07,Wunderground v.1.12,2013-12-10 00:39:00,
2013-12-09 19:40:00,30.3,26.9,30.16,NW,311,4.0,6.0,87,0.00,,,0.07,Wunderground v.1.12,2013-12-10 00:40:00,
2013-12-09 19:41:00,30.3,26.9,30.16,WNW,295,1.0,6.0,87,0.00,,,0.07,Wunderground v.1.12,2013-12-10 00:41:00,
2013-12-09 19:43:00,30.3,26.9,30.16,WNW,296,3.0,4.0,87,0.00,,,0.07,Wunderground v.1.12,2013-12-10 00:43:00,
2013-12-09 19:44:00,30.3,27.2,30.16,NW,321,6.0,6.0,88,0.00,,,0.07,Wunderground v.1.12,2013-12-10 00:44:00,
2013-12-09 19:45:00,30.3,27.2,30.16,WNW,295,6.0,6.0,88,0.00,,,0.07,Wunderground v.1.12,2013-12-10 00:45:00,
2013-12-09 19:46:00,30.3,26.9,30.16,WNW,293,0.0,7.0,87,0.00,,,0.07,Wunderground v.1.12,2013-12-10 00:46:00,
2013-12-09 19:48:00,30.2,27.1,30.16,ENE,75,0.0,6.0,88,0.00,,,0.07,Wunderground v.1.12,2013-12-10 00:48:00,
2013-12-09 19:49:00,30.2,27.1,30.16,SW,232,0.0,6.0,88,0.00,,,0.07,Wunderground v.1.12,2013-12-10 00:49:00,
2013-12-09 19:50:00,30.2,26.8,30.16,West,260,6.0,8.0,87,0.00,,,0.07,Wunderground v.1.12,2013-12-10 00:50:00,
2013-12-09 19:51:00,30.2,26.8,30.16,NNW,329,7.0,12.0,87,0.00,,,0.07,Wunderground v.1.12,2013-12-10 00:51:00,
2013-12-09 19:53:00,30.2,26.8,30.16,NW,315,1.0,8.0,87,0.00,,,0.07,Wunderground v.1.12,2013-12-10 00:53:00,
2013-12-09 19:54:00,30.2,26.8,30.16,NW,309,7.0,8.0,87,0.00,,,0.07,Wunderground v.1.12,2013-12-10 00:54:00,
2013-12-09 19:55:00,30.2,26.8,30.16,NNW,348,2.0,8.0,87,0.00,,,0.07,Wunderground v.1.12,2013-12-10 00:55:00,
2013-12-09 19:56:00,30.2,26.8,30.16,North,6,2.0,8.0,87,0.00,,,0.07,Wunderground v.1.12,2013-12-10 00:56:00,
2013-12-09 19:57:00,30.2,26.8,30.16,NW,307,3.0,8.0,87,0.00,,,0.07,Wunderground v.1.12,2013-12-10 00:57:00,
2013-12-09 19:58:00,30.1,26.7,30.16,WNW,284,0.0,8.0,87,0.00,,,0.07,Wunderground v.1.12,2013-12-10 00:58:00,
2013-12-09 19:59:00,30.1,26.7,30.17,NW,304,9.0,9.0,87,0.00,,,0.07,Wunderground v.1.12,2013-12-10 00:59:00,
2013-12-09 20:01:00,30.1,26.7,30.17,WSW,249,1.0,9.0,87,0.00,,,0.07,Wunderground v.1.12,2013-12-10 01:01:00,
2013-12-09 20:02:00,30.1,26.7,30.17,NW,308,3.0,3.0,87,0.00,,,0.07,Wunderground v.1.12,2013-12-10 01:02:00,
2013-12-09 20:04:00,30.1,26.7,30.17,NW,309,0.0,4.0,87,0.00,,,0.07,Wunderground v.1.12,2013-12-10 01:04:00,
2013-12-09 20:06:00,30.0,26.6,30.17,WSW,256,2.0,4.0,87,0.00,,,0.07,Wunderground v.1.12,2013-12-10 01:06:00,
2013-12-09 20:07:00,30.0,26.6,30.17,NE,40,4.0,5.0,87,0.00,,,0.07,Wunderground v.1.12,2013-12-10 01:07:00,
2013-12-09 20:09:00,30.0,26.6,30.17,NW,304,9.0,9.0,87,0.00,,,0.07,Wunderground v.1.12,2013-12-10 01:09:00,
2013-12-09 20:11:00,29.9,26.5,30.17,West,280,2.0,10.0,87,0.00,,,0.07,Wunderground v.1.12,2013-12-10 01:11:00,
2013-12-09 20:12:00,29.9,26.5,30.17,NNE,12,2.0,3.0,87,0.00,,,0.07,Wunderground v.1.12,2013-12-10 01:12:00,
2013-12-09 20:14:00,29.9,26.5,30.17,NNE,19,5.0,11.0,87,0.00,,,0.07,Wunderground v.1.12,2013-12-10 01:14:00,
2013-12-09 20:16:00,29.8,26.4,30.17,NE,49,1.0,11.0,87,0.00,,,0.07,Wunderground v.1.12,2013-12-10 01:16:00,
2013-12-09 20:17:00,29.8,26.4,30.17,ENE,61,5.0,6.0,87,0.00,,,0.07,Wunderground v.1.12,2013-12-10 01:17:00,
2013-12-09 20:19:00,29.8,26.4,30.17,NNE,15,5.0,11.0,87,0.00,,,0.07,Wunderground v.1.12,2013-12-10 01:19:00,
2013-12-09 20:21:00,29.7,26.3,30.17,WSW,240,0.0,11.0,87,0.00,,,0.07,Wunderground v.1.12,2013-12-10 01:21:00,
2013-12-09 20:22:00,29.7,26.3,30.17,NW,316,9.0,11.0,87,0.00,,,0.07,Wunderground v.1.12,2013-12-10 01:22:00,
2013-12-09 20:23:00,29.7,26.3,30.17,WNW,297,5.0,11.0,87,0.00,,,0.07,Wunderground v.1.12,2013-12-10 01:23:00,
2013-12-09 20:24:00,29.7,26.3,30.17,East,94,4.0,11.0,87,0.00,,,0.07,Wunderground v.1.12,2013-12-10 01:24:00,
2013-12-09 20:26:00,29.7,26.3,30.17,NW,314,1.0,4.0,87,0.00,,,0.07,Wunderground v.1.12,2013-12-10 01:26:00,
2013-12-09 20:27:00,29.7,26.3,30.17,North,1,7.0,12.0,87,0.00,,,0.07,Wunderground v.1.12,2013-12-10 01:27:00,
2013-12-09 20:28:00,29.7,26.3,30.17,NNE,27,10.0,12.0,87,0.00,,,0.07,Wunderground v.1.12,2013-12-10 01:28:00,
2013-12-09 20:29:00,29.6,26.2,30.17,ESE,105,4.0,12.0,87,0.00,,,0.07,Wunderground v.1.12,2013-12-10 01:29:00,
2013-12-09 20:31:00,29.6,26.5,30.17,WNW,302,6.0,7.0,88,0.00,,,0.07,Wunderground v.1.12,2013-12-10 01:31:00,
2013-12-09 20:32:00,29.6,26.2,30.17,ENE,76,2.0,7.0,87,0.00,,,0.07,Wunderground v.1.12,2013-12-10 01:32:00,
2013-12-09 20:33:00,29.6,26.2,30.17,NW,305,7.0,14.0,87,0.00,,,0.07,Wunderground v.1.12,2013-12-10 01:33:00,
2013-12-09 20:34:00,29.6,26.2,30.17,NNE,20,8.0,14.0,87,0.00,,,0.07,Wunderground v.1.12,2013-12-10 01:34:00,
2013-12-09 20:36:00,29.6,26.2,30.17,North,11,6.0,10.0,87,0.00,,,0.07,Wunderground v.1.12,2013-12-10 01:36:00,
2013-12-09 20:37:00,29.6,26.2,30.17,WNW,302,2.0,10.0,87,0.00,,,0.07,Wunderground v.1.12,2013-12-10 01:37:00,
2013-12-09 20:38:00,29.5,26.1,30.17,NW,307,3.0,10.0,87,0.00,,,0.07,Wunderground v.1.12,2013-12-10 01:38:00,
2013-12-09 20:39:00,29.5,26.1,30.17,NW,326,1.0,10.0,87,0.00,,,0.07,Wunderground v.1.12,2013-12-10 01:39:00,
2013-12-09 20:42:00,29.5,26.1,30.17,NE,44,4.0,4.0,87,0.00,,,0.07,Wunderground v.1.12,2013-12-10 01:42:00,
2013-12-09 20:44:00,29.5,26.4,30.17,North,354,2.0,7.0,88,0.00,,,0.07,Wunderground v.1.12,2013-12-10 01:44:00,
2013-12-09 20:45:00,29.5,26.4,30.17,NNW,333,3.0,7.0,88,0.00,,,0.07,Wunderground v.1.12,2013-12-10 01:45:00,
2013-12-09 20:47:00,29.5,26.4,30.17,WNW,301,4.0,9.0,88,0.00,,,0.07,Wunderground v.1.12,2013-12-10 01:47:00,
2013-12-09 20:48:00,29.4,26.3,30.17,North,11,5.0,9.0,88,0.00,,,0.07,Wunderground v.1.12,2013-12-10 01:48:00,
2013-12-09 20:49:00,29.4,26.3,30.17,NW,312,4.0,10.0,88,0.00,,,0.07,Wunderground v.1.12,2013-12-10 01:49:00,
2013-12-09 20:50:00,29.4,26.3,30.17,NNE,25,2.0,10.0,88,0.00,,,0.07,Wunderground v.1.12,2013-12-10 01:50:00,
2013-12-09 20:52:00,29.4,26.3,30.17,WNW,283,5.0,10.0,88,0.00,,,0.07,Wunderground v.1.12,2013-12-10 01:52:00,
2013-12-09 20:53:00,29.4,26.3,30.17,West,260,2.0,10.0,88,0.00,,,0.07,Wunderground v.1.12,2013-12-10 01:53:00,
2013-12-09 20:54:00,29.4,26.3,30.17,West,270,3.0,10.0,88,0.00,,,0.07,Wunderground v.1.12,2013-12-10 01:54:00,
2013-12-09 20:55:00,29.3,26.2,30.17,NE,49,4.0,10.0,88,0.00,,,0.07,Wunderground v.1.12,2013-12-10 01:55:00,
2013-12-09 20:58:00,29.3,26.2,30.17,SW,224,0.0,3.0,88,0.00,,,0.07,Wunderground v.1.12,2013-12-10 01:58:00,
2013-12-09 20:59:00,29.3,26.2,30.17,NW,307,3.0,5.0,88,0.00,,,0.07,Wunderground v.1.12,2013-12-10 01:59:00,
2013-12-09 21:00:00,29.3,26.2,30.17,WNW,295,6.0,6.0,88,0.00,,,0.07,Wunderground v.1.12,2013-12-10 02:00:00,
2013-12-09 21:03:00,29.3,26.2,30.17,NW,304,2.0,2.0,88,0.00,,,0.07,Wunderground v.1.12,2013-12-10 02:03:00,
2013-12-09 21:04:00,29.3,26.2,30.17,WNW,294,0.0,4.0,88,0.00,,,0.07,Wunderground v.1.12,2013-12-10 02:04:00,
2013-12-09 21:05:00,29.3,26.2,30.17,NNE,25,2.0,4.0,88,0.00,,,0.07,Wunderground v.1.12,2013-12-10 02:05:00,
2013-12-09 21:08:00,29.3,26.2,30.17,East,99,1.0,4.0,88,0.00,,,0.07,Wunderground v.1.12,2013-12-10 02:08:00,
2013-12-09 21:09:00,29.2,26.1,30.17,NW,308,1.0,4.0,88,0.00,,,0.07,Wunderground v.1.12,2013-12-10 02:09:00,
2013-12-09 21:10:00,29.2,26.1,30.17,NE,43,0.0,4.0,88,0.00,,,0.07,Wunderground v.1.12,2013-12-10 02:10:00,
2013-12-09 21:13:00,29.2,26.1,30.17,East,87,0.0,2.0,88,0.00,,,0.07,Wunderground v.1.12,2013-12-10 02:13:00,
2013-12-09 21:14:00,29.2,26.1,30.17,ENE,76,1.0,4.0,88,0.00,,,0.07,Wunderground v.1.12,2013-12-10 02:14:00,
2013-12-09 21:15:00,29.2,26.1,30.17,East,92,1.0,4.0,88,0.00,,,0.07,Wunderground v.1.12,2013-12-10 02:15:00,
2013-12-09 21:18:00,29.1,26.0,30.17,ENE,68,2.0,5.0,88,0.00,,,0.07,Wunderground v.1.12,2013-12-10 02:18:00,
2013-12-09 21:19:00,29.1,26.0,30.17,NW,308,2.0,5.0,88,0.00,,,0.07,Wunderground v.1.12,2013-12-10 02:19:00,
2013-12-09 21:20:00,29.1,26.0,30.17,NE,53,1.0,6.0,88,0.00,,,0.07,Wunderground v.1.12,2013-12-10 02:20:00,
2013-12-09 21:23:00,29.1,26.0,30.16,NNE,19,2.0,9.0,88,0.00,,,0.07,Wunderground v.1.12,2013-12-10 02:23:00,
2013-12-09 21:24:00,29.1,26.0,30.16,NW,314,3.0,9.0,88,0.00,,,0.07,Wunderground v.1.12,2013-12-10 02:24:00,
2013-12-09 21:25:00,29.1,26.0,30.17,NW,326,4.0,9.0,88,0.00,,,0.07,Wunderground v.1.12,2013-12-10 02:25:00,
2013-12-09 21:28:00,29.1,26.0,30.16,NNW,348,6.0,11.0,88,0.00,,,0.07,Wunderground v.1.12,2013-12-10 02:28:00,
2013-12-09 21:30:00,29.0,25.9,30.16,WNW,294,1.0,11.0,88,0.00,,,0.07,Wunderground v.1.12,2013-12-10 02:30:00,
2013-12-09 21:33:00,29.0,25.9,30.16,NNW,330,4.0,11.0,88,0.00,,,0.07,Wunderground v.1.12,2013-12-10 02:33:00,
2013-12-09 21:35:00,29.0,25.9,30.16,WNW,300,2.0,11.0,88,0.00,,,0.07,Wunderground v.1.12,2013-12-10 02:35:00,
2013-12-09 21:38:00,28.9,25.8,30.16,NNW,335,5.0,10.0,88,0.00,,,0.07,Wunderground v.1.12,2013-12-10 02:38:00,
2013-12-09 21:39:00,29.0,25.9,30.16,NNE,15,4.0,10.0,88,0.00,,,0.07,Wunderground v.1.12,2013-12-10 02:39:00,
2013-12-09 21:40:00,29.0,25.9,30.16,NW,323,4.0,12.0,88,0.00,,,0.07,Wunderground v.1.12,2013-12-10 02:40:00,
2013-12-09 21:44:00,28.9,25.8,30.16,North,7,9.0,12.0,88,0.00,,,0.07,Wunderground v.1.12,2013-12-10 02:44:00,
2013-12-09 21:45:00,28.9,25.8,30.16,NNW,333,2.0,12.0,88,0.00,,,0.07,Wunderground v.1.12,2013-12-10 02:45:00,
2013-12-09 21:49:00,28.9,25.8,30.16,NE,43,6.0,11.0,88,0.00,,,0.07,Wunderground v.1.12,2013-12-10 02:49:00,
2013-12-09 21:50:00,28.9,25.8,30.16,ENE,57,4.0,11.0,88,0.00,,,0.07,Wunderground v.1.12,2013-12-10 02:50:00,
2013-12-09 21:51:00,28.9,25.8,30.16,North,6,5.0,11.0,88,0.00,,,0.07,Wunderground v.1.12,2013-12-10 02:51:00,
2013-12-09 21:54:00,28.9,25.5,30.16,NW,308,2.0,9.0,87,0.00,,,0.07,Wunderground v.1.12,2013-12-10 02:54:00,
2013-12-09 21:55:00,28.9,25.5,30.16,NNW,330,1.0,9.0,87,0.00,,,0.07,Wunderground v.1.12,2013-12-10 02:55:00,
2013-12-09 21:56:00,28.9,25.8,30.16,NE,47,2.0,9.0,88,0.00,,,0.07,Wunderground v.1.12,2013-12-10 02:56:00,
2013-12-09 21:59:00,28.9,25.8,30.16,North,350,6.0,7.0,88,0.00,,,0.07,Wunderground v.1.12,2013-12-10 02:59:00,
2013-12-09 22:00:00,28.9,25.8,30.16,NNW,330,8.0,12.0,88,0.00,,,0.07,Wunderground v.1.12,2013-12-10 03:00:00,
2013-12-09 22:01:00,28.9,25.5,30.16,NW,305,2.0,12.0,87,0.00,,,0.07,Wunderground v.1.12,2013-12-10 03:01:00,
2013-12-09 22:04:00,28.8,25.4,30.16,ENE,77,0.0,9.0,87,0.00,,,0.07,Wunderground v.1.12,2013-12-10 03:04:00,
2013-12-09 22:05:00,28.9,25.5,30.15,WNW,293,1.0,9.0,87,0.00,,,0.07,Wunderground v.1.12,2013-12-10 03:05:00,
2013-12-09 22:06:00,28.8,25.4,30.16,NNW,343,5.0,9.0,87,0.00,,,0.07,Wunderground v.1.12,2013-12-10 03:06:00,
2013-12-09 22:09:00,28.9,25.5,30.15,WNW,285,3.0,6.0,87,0.00,,,0.07,Wunderground v.1.12,2013-12-10 03:09:00,
2013-12-09 22:10:00,28.9,25.5,30.15,ENE,63,4.0,6.0,87,0.00,,,0.07,Wunderground v.1.12,2013-12-10 03:10:00,
2013-12-09 22:11:00,28.9,25.8,30.16,North,356,1.0,2.0,88,0.00,,,0.07,Wunderground v.1.12,2013-12-10 03:11:00,
2013-12-09 22:14:00,28.8,25.7,30.15,NNW,345,7.0,10.0,88,0.00,,,0.07,Wunderground v.1.12,2013-12-10 03:14:00,
2013-12-09 22:15:00,28.9,25.8,30.15,West,277,1.0,10.0,88,0.00,,,0.07,Wunderground v.1.12,2013-12-10 03:15:00,
2013-12-09 22:16:00,28.8,25.7,30.15,NNE,19,0.0,3.0,88,0.00,,,0.07,Wunderground v.1.12,2013-12-10 03:16:00,
2013-12-09 22:19:00,28.8,25.4,30.15,ESE,113,1.0,5.0,87,0.00,,,0.07,Wunderground v.1.12,2013-12-10 03:19:00,
2013-12-09 22:20:00,28.8,25.4,30.15,NE,37,2.0,5.0,87,0.00,,,0.07,Wunderground v.1.12,2013-12-10 03:20:00,
2013-12-09 22:21:00,28.8,25.4,30.15,NNW,330,4.0,8.0,87,0.00,,,0.07,Wunderground v.1.12,2013-12-10 03:21:00,
2013-12-09 22:22:00,28.8,25.4,30.15,East,90,4.0,6.0,87,0.00,,,0.07,Wunderground v.1.12,2013-12-10 03:22:00,
2013-12-09 22:24:00,28.8,25.4,30.15,NNW,333,1.0,6.0,87,0.00,,,0.07,Wunderground v.1.12,2013-12-10 03:24:00,
2013-12-09 22:25:00,28.8,25.4,30.15,NNE,27,2.0,6.0,87,0.00,,,0.07,Wunderground v.1.12,2013-12-10 03:25:00,
2013-12-09 22:26:00,28.8,25.4,30.15,NNE,20,3.0,6.0,87,0.00,,,0.07,Wunderground v.1.12,2013-12-10 03:26:00,
2013-12-09 22:27:00,28.8,25.4,30.15,NNW,338,6.0,10.0,87,0.00,,,0.07,Wunderground v.1.12,2013-12-10 03:27:00,
2013-12-09 22:29:00,28.8,25.4,30.15,WNW,294,5.0,11.0,87,0.00,,,0.07,Wunderground v.1.12,2013-12-10 03:29:00,
2013-12-09 22:30:00,28.8,25.4,30.15,NE,49,3.0,11.0,87,0.00,,,0.07,Wunderground v.1.12,2013-12-10 03:30:00,
2013-12-09 22:31:00,28.8,25.4,30.15,NW,321,9.0,11.0,87,0.00,,,0.07,Wunderground v.1.12,2013-12-10 03:31:00,
2013-12-09 22:32:00,28.7,25.3,30.15,NNW,342,2.0,12.0,87,0.00,,,0.07,Wunderground v.1.12,2013-12-10 03:32:00,
2013-12-09 22:35:00,28.7,25.3,30.15,North,355,1.0,12.0,87,0.00,,,0.07,Wunderground v.1.12,2013-12-10 03:35:00,
2013-12-09 22:36:00,28.7,25.3,30.15,NE,46,3.0,4.0,87,0.00,,,0.07,Wunderground v.1.12,2013-12-10 03:36:00,
2013-12-09 22:37:00,28.7,25.3,30.15,North,358,2.0,4.0,87,0.00,,,0.07,Wunderground v.1.12,2013-12-10 03:37:00,
2013-12-09 22:38:00,28.7,25.3,30.15,WNW,291,2.0,7.0,87,0.00,,,0.07,Wunderground v.1.12,2013-12-10 03:38:00,
2013-12-09 22:40:00,28.7,25.3,30.15,NW,309,1.0,10.0,87,0.00,,,0.07,Wunderground v.1.12,2013-12-10 03:40:00,
2013-12-09 22:41:00,28.7,25.3,30.15,NNE,21,4.0,4.0,87,0.00,,,0.07,Wunderground v.1.12,2013-12-10 03:41:00,
2013-12-09 22:42:00,28.7,25.3,30.15,North,7,1.0,4.0,87,0.00,,,0.07,Wunderground v.1.12,2013-12-10 03:42:00,
2013-12-09 22:43:00,28.7,25.3,30.15,NE,37,1.0,5.0,87,0.00,,,0.07,Wunderground v.1.12,2013-12-10 03:43:00,
2013-12-09 22:45:00,28.6,25.2,30.16,NW,304,0.0,5.0,87,0.00,,,0.07,Wunderground v.1.12,2013-12-10 03:45:00,
2013-12-09 22:46:00,28.6,25.2,30.16,ENE,70,0.0,2.0,87,0.00,,,0.07,Wunderground v.1.12,2013-12-10 03:46:00,
2013-12-09 22:47:00,28.6,25.2,30.16,East,89,4.0,5.0,87,0.00,,,0.07,Wunderground v.1.12,2013-12-10 03:47:00,
2013-12-09 22:48:00,28.6,25.5,30.16,ENE,64,11.0,11.0,88,0.00,,,0.07,Wunderground v.1.12,2013-12-10 03:48:00,
2013-12-09 22:50:00,28.6,25.5,30.16,West,281,1.0,11.0,88,0.00,,,0.07,Wunderground v.1.12,2013-12-10 03:50:00,
2013-12-09 22:52:00,28.6,25.5,30.16,WNW,285,0.0,2.0,88,0.00,,,0.07,Wunderground v.1.12,2013-12-10 03:52:00,
2013-12-09 22:54:00,28.6,25.5,30.15,NNE,21,2.0,4.0,88,0.00,,,0.07,Wunderground v.1.12,2013-12-10 03:54:00,
2013-12-09 22:55:00,28.6,25.5,30.15,WNW,300,3.0,5.0,88,0.00,,,0.07,Wunderground v.1.12,2013-12-10 03:55:00,
2013-12-09 22:56:00,28.6,25.5,30.15,NW,309,3.0,5.0,88,0.00,,,0.07,Wunderground v.1.12,2013-12-10 03:56:00,
2013-12-09 22:57:00,28.6,25.5,30.16,WNW,298,1.0,2.0,88,0.00,,,0.07,Wunderground v.1.12,2013-12-10 03:57:00,
2013-12-09 22:59:00,28.5,25.4,30.15,WNW,291,2.0,7.0,88,0.00,,,0.07,Wunderground v.1.12,2013-12-10 03:59:00,
2013-12-09 23:00:00,28.5,25.4,30.15,WNW,291,0.0,7.0,88,0.00,,,0.07,Wunderground v.1.12,2013-12-10 04:00:00,
2013-12-09 23:01:00,28.5,25.4,30.15,WNW,295,0.0,7.0,88,0.00,,,0.07,Wunderground v.1.12,2013-12-10 04:01:00,
2013-12-09 23:02:00,28.5,25.4,30.15,WNW,290,0.0,2.0,88,0.00,,,0.07,Wunderground v.1.12,2013-12-10 04:02:00,
2013-12-09 23:04:00,28.5,25.4,30.16,East,92,1.0,3.0,88,0.00,,,0.07,Wunderground v.1.12,2013-12-10 04:04:00,
2013-12-09 23:06:00,28.5,25.4,30.16,NW,304,0.0,3.0,88,0.00,,,0.07,Wunderground v.1.12,2013-12-10 04:06:00,
2013-12-09 23:07:00,28.4,25.6,30.15,SW,236,3.0,7.0,89,0.00,,,0.07,Wunderground v.1.12,2013-12-10 04:07:00,
2013-12-09 23:10:00,28.4,25.6,30.15,WNW,300,2.0,7.0,89,0.00,,,0.07,Wunderground v.1.12,2013-12-10 04:10:00,
2013-12-09 23:11:00,28.4,25.6,30.15,NNE,32,2.0,2.0,89,0.00,,,0.07,Wunderground v.1.12,2013-12-10 04:11:00,
2013-12-09 23:12:00,28.4,25.6,30.15,West,274,0.0,3.0,89,0.00,,,0.07,Wunderground v.1.12,2013-12-10 04:12:00,
2013-12-09 23:13:00,28.4,25.6,30.15,WNW,295,0.0,3.0,89,0.00,,,0.07,Wunderground v.1.12,2013-12-10 04:13:00,
2013-12-09 23:15:00,28.4,25.6,30.15,North,353,3.0,4.0,89,0.00,,,0.07,Wunderground v.1.12,2013-12-10 04:15:00,
2013-12-09 23:16:00,28.4,25.6,30.15,NE,44,1.0,1.0,89,0.00,,,0.07,Wunderground v.1.12,2013-12-10 04:16:00,
2013-12-09 23:17:00,28.4,25.6,30.14,NW,326,0.0,2.0,89,0.00,,,0.07,Wunderground v.1.12,2013-12-10 04:17:00,
2013-12-09 23:18:00,28.3,25.5,30.14,WNW,294,2.0,2.0,89,0.00,,,0.07,Wunderground v.1.12,2013-12-10 04:18:00,
2013-12-09 23:20:00,28.3,25.5,30.14,NE,48,0.0,5.0,89,0.00,,,0.07,Wunderground v.1.12,2013-12-10 04:20:00,
2013-12-09 23:21:00,28.3,25.5,30.14,NE,39,0.0,1.0,89,0.00,,,0.07,Wunderground v.1.12,2013-12-10 04:21:00,
2013-12-09 23:22:00,28.3,25.5,30.14,NNW,333,3.0,3.0,89,0.00,,,0.07,Wunderground v.1.12,2013-12-10 04:22:00,
2013-12-09 23:23:00,28.3,25.5,30.14,WNW,285,0.0,3.0,89,0.00,,,0.07,Wunderground v.1.12,2013-12-10 04:23:00,
2013-12-09 23:25:00,28.3,25.5,30.14,WNW,297,5.0,5.0,89,0.00,,,0.07,Wunderground v.1.12,2013-12-10 04:25:00,
2013-12-09 23:26:00,28.3,25.5,30.14,WNW,295,2.0,2.0,89,0.00,,,0.07,Wunderground v.1.12,2013-12-10 04:26:00,
2013-12-09 23:27:00,28.3,25.2,30.14,NNE,32,1.0,5.0,88,0.00,,,0.07,Wunderground v.1.12,2013-12-10 04:27:00,
2013-12-09 23:28:00,28.3,25.2,30.14,WNW,300,1.0,5.0,88,0.00,,,0.07,Wunderground v.1.12,2013-12-10 04:28:00,
2013-12-09 23:30:00,28.2,25.1,30.13,WNW,300,2.0,5.0,88,0.00,,,0.07,Wunderground v.1.12,2013-12-10 04:30:00,
2013-12-09 23:32:00,28.2,25.1,30.13,NW,304,3.0,4.0,88,0.00,,,0.07,Wunderground v.1.12,2013-12-10 04:32:00,
2013-12-09 23:33:00,28.2,25.1,30.13,NW,310,3.0,4.0,88,0.00,,,0.07,Wunderground v.1.12,2013-12-10 04:33:00,
2013-12-09 23:36:00,28.2,24.8,30.13,WNW,287,1.0,4.0,87,0.00,,,0.07,Wunderground v.1.12,2013-12-10 04:36:00,
2013-12-09 23:37:00,28.2,24.8,30.13,NNW,342,1.0,3.0,87,0.00,,,0.07,Wunderground v.1.12,2013-12-10 04:37:00,
2013-12-09 23:38:00,28.2,24.8,30.13,NW,314,7.0,7.0,87,0.00,,,0.07,Wunderground v.1.12,2013-12-10 04:38:00,
2013-12-09 23:39:00,28.2,24.8,30.13,NW,308,3.0,8.0,87,0.00,,,0.07,Wunderground v.1.12,2013-12-10 04:39:00,
2013-12-09 23:41:00,28.2,24.8,30.13,West,264,1.0,2.0,87,0.00,,,0.07,Wunderground v.1.12,2013-12-10 04:41:00,
2013-12-09 23:42:00,28.2,24.8,30.13,WNW,300,1.0,3.0,87,0.00,,,0.07,Wunderground v.1.12,2013-12-10 04:42:00,
2013-12-09 23:43:00,28.2,24.8,30.13,WNW,300,0.0,3.0,87,0.00,,,0.07,Wunderground v.1.12,2013-12-10 04:43:00,
2013-12-09 23:44:00,28.2,24.8,30.13,NW,308,1.0,4.0,87,0.00,,,0.07,Wunderground v.1.12,2013-12-10 04:44:00,
2013-12-09 23:46:00,28.2,24.8,30.13,NNE,21,1.0,2.0,87,0.00,,,0.07,Wunderground v.1.12,2013-12-10 04:46:00,
2013-12-09 23:47:00,28.2,25.1,30.13,NNE,25,1.0,2.0,88,0.00,,,0.07,Wunderground v.1.12,2013-12-10 04:47:00,
2013-12-09 23:48:00,28.2,25.1,30.13,NNW,347,0.0,2.0,88,0.00,,,0.07,Wunderground v.1.12,2013-12-10 04:48:00,
2013-12-09 23:49:00,28.2,25.1,30.13,NNW,347,0.0,2.0,88,0.00,,,0.07,Wunderground v.1.12,2013-12-10 04:49:00,
2013-12-09 23:51:00,28.2,25.1,30.13,NNW,340,0.0,1.0,88,0.00,,,0.07,Wunderground v.1.12,2013-12-10 04:51:00,
2013-12-09 23:52:00,28.2,25.1,30.13,ENE,61,1.0,1.0,88,0.00,,,0.07,Wunderground v.1.12,2013-12-10 04:52:00,
2013-12-09 23:53:00,28.2,25.1,30.13,NNW,336,3.0,6.0,88,0.00,,,0.07,Wunderground v.1.12,2013-12-10 04:53:00,
2013-12-09 23:54:00,28.2,25.1,30.12,NE,41,0.0,6.0,88,0.00,,,0.07,Wunderground v.1.12,2013-12-10 04:54:00,
2013-12-09 23:56:00,28.1,25.0,30.12,WSW,249,0.0,1.0,88,0.00,,,0.07,Wunderground v.1.12,2013-12-10 04:56:00,
2013-12-09 23:57:00,28.1,25.0,30.12,WSW,249,0.0,1.0,88,0.00,,,0.07,Wunderground v.1.12,2013-12-10 04:57:00,
2013-12-09 23:58:00,28.1,25.0,30.12,WSW,249,0.0,1.0,88,0.00,,,0.07,Wunderground v.1.12,2013-12-10 04:58:00,
2013-12-09 23:59:00,28.1,25.0,30.12,WNW,300,0.0,1.0,88,0.00,,,0.07,Wunderground v.1.12,2013-12-10 04:59:00,